Wetterdaten: Mittwoch, 19.02.2014
Datum Zeit Temp. Aussen +5cm Feuchte Auss Luftdruck Regen Sonnenschein Regendauer UV Solar Windben
19.02.2014 00:00 6,9 C 5,0 C 86 % 1010,8 hPa 0,0 l/m 0 min 0 min 0,0 UV-I 0 W/m 15,4 km/h (3 Bft)
19.02.2014 00:02 6,9 C 5,0 C 86 % 1010,9 hPa 0,0 l/m 0 min 0 min 0,0 UV-I 0 W/m 5,1 km/h (1 Bft)
19.02.2014 00:06 6,8 C 5,0 C 87 % 1010,8 hPa 0,0 l/m 0 min 2 min 0,0 UV-I 0 W/m 7,7 km/h (2 Bft)
19.02.2014 00:08 6,8 C 5,0 C 87 % 1010,8 hPa 0,0 l/m 0 min 2 min 0,0 UV-I 0 W/m 5,1 km/h (1 Bft)
19.02.2014 00:10 6,8 C 5,0 C 87 % 1010,7 hPa 0,0 l/m 0 min 2 min 0,0 UV-I 0 W/m 0,0 km/h (0 Bft)
19.02.2014 00:12 6,8 C 5,0 C 88 % 1010,8 hPa 0,0 l/m 0 min 2 min 0,0 UV-I 0 W/m 5,1 km/h (1 Bft)
19.02.2014 00:14 6,7 C 5,0 C 88 % 1010,8 hPa 0,0 l/m 0 min 2 min 0,0 UV-I 0 W/m 0,0 km/h (0 Bft)
19.02.2014 00:16 6,7 C 5,0 C 88 % 1010,8 hPa 0,0 l/m 0 min 0 min 0,0 UV-I 0 W/m 0,0 km/h (0 Bft)
19.02.2014 00:18 6,7 C 5,0 C 88 % 1010,8 hPa 0,0 l/m 0 min 0 min 0,0 UV-I 0 W/m 0,0 km/h (0 Bft)
19.02.2014 00:20 6,7 C 5,0 C 89 % 1010,8 hPa 0,0 l/m 0 min 0 min 0,0 UV-I 0 W/m 2,6 km/h (1 Bft)
19.02.2014 00:22 6,6 C 5,0 C 89 % 1010,8 hPa 0,0 l/m 0 min 0 min 0,0 UV-I 0 W/m 0,0 km/h (0 Bft)
19.02.2014 00:24 6,6 C 5,0 C 89 % 1010,7 hPa 0,0 l/m 0 min 0 min 0,0 UV-I 0 W/m 0,0 km/h (0 Bft)
19.02.2014 00:26 6,6 C 5,0 C 89 % 1010,8 hPa 0,0 l/m 0 min 0 min 0,0 UV-I 0 W/m 12,9 km/h (3 Bft)
19.02.2014 00:28 6,6 C 5,0 C 90 % 1010,7 hPa 0,0 l/m 0 min 2 min 0,0 UV-I 0 W/m 10,3 km/h (2 Bft)
19.02.2014 00:30 6,6 C 5,0 C 90 % 1010,7 hPa 0,0 l/m 0 min 0 min 0,0 UV-I 0 W/m 0,0 km/h (0 Bft)
19.02.2014 00:32 6,6 C 5,0 C 90 % 1010,7 hPa 0,0 l/m 0 min 0 min 0,0 UV-I 0 W/m 5,1 km/h (1 Bft)
19.02.2014 00:34 6,6 C 5,0 C 90 % 1010,8 hPa 0,0 l/m 0 min 0 min 0,0 UV-I 0 W/m 7,7 km/h (2 Bft)
19.02.2014 00:36 6,6 C 5,0 C 90 % 1010,8 hPa 0,0 l/m 0 min 0 min 0,0 UV-I 0 W/m 0,0 km/h (0 Bft)
19.02.2014 00:38 6,6 C 5,0 C 90 % 1010,8 hPa 0,0 l/m 0 min 2 min 0,0 UV-I 0 W/m 5,1 km/h (1 Bft)
19.02.2014 00:40 6,6 C 5,0 C 90 % 1010,7 hPa 0,0 l/m 0 min 0 min 0,0 UV-I 0 W/m 0,0 km/h (0 Bft)
19.02.2014 00:42 6,6 C 5,0 C 91 % 1010,7 hPa 0,0 l/m 0 min 0 min 0,0 UV-I 0 W/m 2,6 km/h (1 Bft)
19.02.2014 00:44 6,6 C 5,0 C 91 % 1010,7 hPa 0,0 l/m 0 min 2 min 0,0 UV-I 0 W/m 2,6 km/h (1 Bft)
19.02.2014 00:46 6,6 C 5,0 C 91 % 1010,7 hPa 0,0 l/m 0 min 2 min 0,0 UV-I 0 W/m 0,0 km/h (0 Bft)
19.02.2014 00:48 6,5 C 5,0 C 91 % 1010,7 hPa 0,0 l/m 0 min 0 min 0,0 UV-I 0 W/m 5,1 km/h (1 Bft)
19.02.2014 00:50 6,6 C 5,0 C 91 % 1010,7 hPa 0,0 l/m 0 min 0 min 0,0 UV-I 0 W/m 2,6 km/h (1 Bft)
19.02.2014 00:52 6,5 C 5,0 C 91 % 1010,7 hPa 0,0 l/m 0 min 0 min 0,0 UV-I 0 W/m 0,0 km/h (0 Bft)
19.02.2014 00:54 6,5 C 5,0 C 91 % 1010,6 hPa 0,0 l/m 0 min 0 min 0,0 UV-I 0 W/m 0,0 km/h (0 Bft)
19.02.2014 00:56 6,5 C 5,0 C 91 % 1010,7 hPa 0,0 l/m 0 min 0 min 0,0 UV-I 0 W/m 0,0 km/h (0 Bft)
19.02.2014 00:58 6,6 C 5,0 C 91 % 1010,6 hPa 0,0 l/m 0 min 0 min 0,0 UV-I 0 W/m 0,0 km/h (0 Bft)
19.02.2014 01:00 6,6 C 5,0 C 91 % 1010,6 hPa 0,0 l/m 0 min 0 min 0,0 UV-I 0 W/m 0,0 km/h (0 Bft)
19.02.2014 01:02 6,6 C 5,0 C 95 % 1010,6 hPa 0,0 l/m 0 min 0 min 0,0 UV-I 0 W/m 0,0 km/h (0 Bft)
19.02.2014 01:04 6,6 C 5,0 C 95 % 1010,6 hPa 0,0 l/m 0 min 0 min 0,0 UV-I 0 W/m 2,6 km/h (1 Bft)
19.02.2014 01:06 6,6 C 5,0 C 91 % 1010,6 hPa 0,0 l/m 0 min 0 min 0,0 UV-I 0 W/m 0,0 km/h (0 Bft)
19.02.2014 01:08 6,6 C 5,0 C 91 % 1010,6 hPa 0,0 l/m 0 min 0 min 0,0 UV-I 0 W/m 0,0 km/h (0 Bft)
19.02.2014 01:10 6,6 C 5,0 C 91 % 1010,6 hPa 0,0 l/m 0 min 0 min 0,0 UV-I 0 W/m 0,0 km/h (0 Bft)
19.02.2014 01:12 6,6 C 5,0 C 91 % 1010,6 hPa 0,0 l/m 0 min 0 min 0,0 UV-I 0 W/m 0,0 km/h (0 Bft)
19.02.2014 01:14 6,6 C 5,0 C 91 % 1010,6 hPa 0,0 l/m 0 min 0 min 0,0 UV-I 0 W/m 0,0 km/h (0 Bft)
19.02.2014 01:16 6,7 C 5,0 C 91 % 1010,6 hPa 0,0 l/m 0 min 0 min 0,0 UV-I 0 W/m 0,0 km/h (0 Bft)
19.02.2014 01:18 6,7 C 5,0 C 91 % 1010,6 hPa 0,0 l/m 0 min 0 min 0,0 UV-I 0 W/m 0,0 km/h (0 Bft)
19.02.2014 01:20 6,7 C 5,0 C 90 % 1010,5 hPa 0,0 l/m 0 min 0 min 0,0 UV-I 0 W/m 2,6 km/h (1 Bft)
19.02.2014 01:22 6,7 C 5,0 C 90 % 1010,5 hPa 0,0 l/m 0 min 0 min 0,0 UV-I 0 W/m 0,0 km/h (0 Bft)
19.02.2014 01:24 6,7 C 5,0 C 90 % 1010,5 hPa 0,0 l/m 0 min 0 min 0,0 UV-I 0 W/m 5,1 km/h (1 Bft)
19.02.2014 01:26 6,7 C 5,0 C 90 % 1010,6 hPa 0,0 l/m 0 min 2 min 0,0 UV-I 0 W/m 0,0 km/h (0 Bft)
19.02.2014 01:28 6,7 C 5,0 C 90 % 1010,6 hPa 0,0 l/m 0 min 2 min 0,0 UV-I 0 W/m 5,1 km/h (1 Bft)
19.02.2014 01:30 6,7 C 5,0 C 90 % 1010,6 hPa 0,0 l/m 0 min 2 min 0,0 UV-I 0 W/m 12,9 km/h (3 Bft)
19.02.2014 01:32 6,7 C 5,0 C 90 % 1010,6 hPa 0,0 l/m 0 min 2 min 0,0 UV-I 0 W/m 7,7 km/h (2 Bft)
19.02.2014 01:34 6,7 C 5,0 C 90 % 1010,6 hPa 0,0 l/m 0 min 2 min 0,0 UV-I 0 W/m 10,3 km/h (2 Bft)
19.02.2014 01:36 6,7 C 5,0 C 90 % 1010,6 hPa 0,2 l/m 0 min 2 min 0,0 UV-I 0 W/m 10,3 km/h (2 Bft)
19.02.2014 01:38 6,7 C 5,0 C 90 % 1010,6 hPa 0,0 l/m 0 min 0 min 0,0 UV-I 0 W/m 10,3 km/h (2 Bft)
19.02.2014 01:40 6,7 C 5,0 C 91 % 1010,6 hPa 0,0 l/m 0 min 0 min 0,0 UV-I 0 W/m 0,0 km/h (0 Bft)
19.02.2014 01:42 6,7 C 5,0 C 91 % 1010,5 hPa 0,0 l/m 0 min 0 min 0,0 UV-I 0 W/m 7,7 km/h (2 Bft)
19.02.2014 01:44 6,7 C 5,0 C 91 % 1010,5 hPa 0,0 l/m 0 min 2 min 0,0 UV-I 0 W/m 7,7 km/h (2 Bft)
19.02.2014 01:46 6,7 C 5,0 C 91 % 1010,5 hPa 0,0 l/m 0 min 0 min 0,0 UV-I 0 W/m 5,1 km/h (1 Bft)
19.02.2014 01:48 6,7 C 5,0 C 91 % 1010,5 hPa 0,0 l/m 0 min 0 min 0,0 UV-I 0 W/m 12,9 km/h (3 Bft)
19.02.2014 01:50 6,7 C 5,0 C 91 % 1010,5 hPa 0,0 l/m 0 min 2 min 0,0 UV-I 0 W/m 0,0 km/h (0 Bft)
19.02.2014 01:52 6,7 C 5,0 C 91 % 1010,5 hPa 0,0 l/m 0 min 2 min 0,0 UV-I 0 W/m 10,3 km/h (2 Bft)
19.02.2014 01:54 6,7 C 5,0 C 91 % 1010,5 hPa 0,0 l/m 0 min 2 min 0,0 UV-I 0 W/m 10,3 km/h (2 Bft)
19.02.2014 01:56 6,7 C 5,0 C 91 % 1010,5 hPa 0,0 l/m 0 min 2 min 0,0 UV-I 0 W/m 10,3 km/h (2 Bft)
19.02.2014 01:58 6,7 C 5,0 C 92 % 1010,5 hPa 0,0 l/m 0 min 2 min 0,0 UV-I 0 W/m 0,0 km/h (0 Bft)
19.02.2014 02:00 6,6 C 5,0 C 92 % 1010,6 hPa 0,0 l/m 0 min 2 min 0,0 UV-I 0 W/m 7,7 km/h (2 Bft)
19.02.2014 02:02 6,6 C 5,0 C 92 % 1010,6 hPa 0,0 l/m 0 min 0 min 0,0 UV-I 0 W/m 7,7 km/h (2 Bft)
19.02.2014 02:04 6,6 C 5,0 C 92 % 1010,6 hPa 0,0 l/m 0 min 0 min 0,0 UV-I 0 W/m 7,7 km/h (2 Bft)
19.02.2014 02:06 6,6 C 4,4 C 92 % 1010,5 hPa 0,0 l/m 0 min 0 min 0,0 UV-I 0 W/m 0,0 km/h (0 Bft)
19.02.2014 02:08 6,5 C 4,4 C 92 % 1010,5 hPa 0,0 l/m 0 min 0 min 0,0 UV-I 0 W/m 10,3 km/h (2 Bft)
19.02.2014 02:10 6,5 C 4,4 C 92 % 1010,5 hPa 0,0 l/m 0 min 0 min 0,0 UV-I 0 W/m 10,3 km/h (2 Bft)
19.02.2014 02:12 6,5 C 5,0 C 92 % 1010,6 hPa 0,0 l/m 0 min 0 min 0,0 UV-I 0 W/m 10,3 km/h (2 Bft)
19.02.2014 02:14 6,5 C 4,4 C 92 % 1010,5 hPa 0,0 l/m 0 min 0 min 0,0 UV-I 0 W/m 0,0 km/h (0 Bft)
19.02.2014 02:16 6,5 C 4,4 C 93 % 1010,5 hPa 0,0 l/m 0 min 0 min 0,0 UV-I 0 W/m 5,1 km/h (1 Bft)
19.02.2014 02:18 6,5 C 4,4 C 93 % 1010,5 hPa 0,0 l/m 0 min 0 min 0,0 UV-I 0 W/m 0,0 km/h (0 Bft)
19.02.2014 02:20 6,4 C 4,4 C 93 % 1010,5 hPa 0,0 l/m 0 min 0 min 0,0 UV-I 0 W/m 7,7 km/h (2 Bft)
19.02.2014 02:22 6,5 C 4,4 C 93 % 1010,5 hPa 0,0 l/m 0 min 0 min 0,0 UV-I 0 W/m 12,9 km/h (3 Bft)
19.02.2014 02:24 6,5 C 4,4 C 93 % 1010,5 hPa 0,0 l/m 0 min 0 min 0,0 UV-I 0 W/m 12,9 km/h (3 Bft)
19.02.2014 02:26 6,5 C 4,4 C 93 % 1010,5 hPa 0,0 l/m 0 min 0 min 0,0 UV-I 0 W/m 7,7 km/h (2 Bft)
19.02.2014 02:28 6,5 C 4,4 C 93 % 1010,5 hPa 0,0 l/m 0 min 0 min 0,0 UV-I 0 W/m 15,4 km/h (3 Bft)
19.02.2014 02:30 6,5 C 4,4 C 93 % 1010,5 hPa 0,0 l/m 0 min 0 min 0,0 UV-I 0 W/m 12,9 km/h (3 Bft)
19.02.2014 02:32 6,5 C 4,4 C 93 % 1010,5 hPa 0,0 l/m 0 min 0 min 0,0 UV-I 0 W/m 15,4 km/h (3 Bft)
19.02.2014 02:34 6,6 C 4,4 C 93 % 1010,5 hPa 0,0 l/m 0 min 0 min 0,0 UV-I 0 W/m 12,9 km/h (3 Bft)
19.02.2014 02:36 6,6 C 5,0 C 93 % 1010,5 hPa 0,0 l/m 0 min 0 min 0,0 UV-I 0 W/m 12,9 km/h (3 Bft)
19.02.2014 02:38 6,6 C 5,0 C 93 % 1010,5 hPa 0,0 l/m 0 min 0 min 0,0 UV-I 0 W/m 10,3 km/h (2 Bft)
19.02.2014 02:40 6,6 C 5,0 C 93 % 1010,5 hPa 0,0 l/m 0 min 0 min 0,0 UV-I 0 W/m 7,7 km/h (2 Bft)
19.02.2014 02:42 6,6 C 5,0 C 92 % 1010,5 hPa 0,0 l/m 0 min 0 min 0,0 UV-I 0 W/m 10,3 km/h (2 Bft)
19.02.2014 02:44 6,6 C 5,0 C 93 % 1010,5 hPa 0,0 l/m 0 min 0 min 0,0 UV-I 0 W/m 10,3 km/h (2 Bft)
19.02.2014 02:46 6,6 C 5,0 C 92 % 1010,6 hPa 0,0 l/m 0 min 0 min 0,0 UV-I 0 W/m 2,6 km/h (1 Bft)
19.02.2014 02:48 6,7 C 5,0 C 92 % 1010,5 hPa 0,0 l/m 0 min 0 min 0,0 UV-I 0 W/m 2,6 km/h (1 Bft)
19.02.2014 02:50 6,7 C 5,0 C 92 % 1010,6 hPa 0,0 l/m 0 min 0 min 0,0 UV-I 0 W/m 5,1 km/h (1 Bft)
19.02.2014 02:52 6,7 C 5,0 C 92 % 1010,6 hPa 0,0 l/m 0 min 0 min 0,0 UV-I 0 W/m 7,7 km/h (2 Bft)
19.02.2014 02:54 6,7 C 5,0 C 92 % 1010,6 hPa 0,0 l/m 0 min 0 min 0,0 UV-I 0 W/m 7,7 km/h (2 Bft)
19.02.2014 02:56 6,7 C 5,0 C 92 % 1010,5 hPa 0,0 l/m 0 min 0 min 0,0 UV-I 0 W/m 7,7 km/h (2 Bft)
19.02.2014 02:58 6,7 C 5,0 C 92 % 1010,6 hPa 0,0 l/m 0 min 0 min 0,0 UV-I 0 W/m 0,0 km/h (0 Bft)
19.02.2014 03:00 6,7 C 5,0 C 92 % 1010,5 hPa 0,0 l/m 0 min 0 min 0,0 UV-I 0 W/m 2,6 km/h (1 Bft)
19.02.2014 03:02 6,7 C 5,0 C 92 % 1010,5 hPa 0,0 l/m 0 min 0 min 0,0 UV-I 0 W/m 5,1 km/h (1 Bft)
19.02.2014 03:04 6,7 C 5,0 C 92 % 1010,5 hPa 0,0 l/m 0 min 0 min 0,0 UV-I 0 W/m 7,7 km/h (2 Bft)
19.02.2014 03:06 6,7 C 5,0 C 92 % 1010,5 hPa 0,0 l/m 0 min 0 min 0,0 UV-I 0 W/m 12,9 km/h (3 Bft)
19.02.2014 03:08 6,7 C 5,0 C 92 % 1010,5 hPa 0,0 l/m 0 min 0 min 0,0 UV-I 0 W/m 15,4 km/h (3 Bft)
19.02.2014 03:10 6,7 C 5,0 C 92 % 1010,5 hPa 0,0 l/m 0 min 2 min 0,0 UV-I 0 W/m 10,3 km/h (2 Bft)
19.02.2014 03:12 6,8 C 5,0 C 92 % 1010,5 hPa 0,0 l/m 0 min 2 min 0,0 UV-I 0 W/m 2,6 km/h (1 Bft)
19.02.2014 03:14 6,8 C 5,0 C 92 % 1010,5 hPa 0,0 l/m 0 min 0 min 0,0 UV-I 0 W/m 0,0 km/h (0 Bft)
19.02.2014 03:16 6,8 C 5,0 C 92 % 1010,5 hPa 0,0 l/m 0 min 2 min 0,0 UV-I 0 W/m 5,1 km/h (1 Bft)
19.02.2014 03:18 6,8 C 5,0 C 92 % 1010,5 hPa 0,0 l/m 0 min 2 min 0,0 UV-I 0 W/m 0,0 km/h (0 Bft)
19.02.2014 03:20 6,8 C 5,0 C 92 % 1010,5 hPa 0,0 l/m 0 min 2 min 0,0 UV-I 0 W/m 0,0 km/h (0 Bft)
19.02.2014 03:22 6,8 C 5,0 C 92 % 1010,4 hPa 0,0 l/m 0 min 0 min 0,0 UV-I 0 W/m 2,6 km/h (1 Bft)
19.02.2014 03:24 6,8 C 5,0 C 92 % 1010,5 hPa 0,0 l/m 0 min 0 min 0,0 UV-I 0 W/m 15,4 km/h (3 Bft)
19.02.2014 03:26 6,7 C 5,0 C 92 % 1010,5 hPa 0,0 l/m 0 min 0 min 0,0 UV-I 0 W/m 7,7 km/h (2 Bft)
19.02.2014 03:28 6,8 C 5,0 C 92 % 1010,4 hPa 0,0 l/m 0 min 0 min 0,0 UV-I 0 W/m 12,9 km/h (3 Bft)
19.02.2014 03:30 6,8 C 5,0 C 92 % 1010,5 hPa 0,0 l/m 0 min 0 min 0,0 UV-I 0 W/m 2,6 km/h (1 Bft)
19.02.2014 03:32 6,8 C 5,0 C 92 % 1010,5 hPa 0,0 l/m 0 min 2 min 0,0 UV-I 0 W/m 7,7 km/h (2 Bft)
19.02.2014 03:34 6,8 C 5,0 C 92 % 1010,5 hPa 0,2 l/m 0 min 2 min 0,0 UV-I 0 W/m 7,7 km/h (2 Bft)
19.02.2014 03:36 6,8 C 5,0 C 92 % 1010,6 hPa 0,0 l/m 0 min 2 min 0,0 UV-I 0 W/m 7,7 km/h (2 Bft)
19.02.2014 03:38 6,8 C 5,0 C 92 % 1010,5 hPa 0,0 l/m 0 min 0 min 0,0 UV-I 0 W/m 5,1 km/h (1 Bft)
19.02.2014 03:40 6,8 C 5,0 C 92 % 1010,5 hPa 0,0 l/m 0 min 0 min 0,0 UV-I 0 W/m 2,6 km/h (1 Bft)
19.02.2014 03:42 6,8 C 5,0 C 92 % 1010,5 hPa 0,0 l/m 0 min 0 min 0,0 UV-I 0 W/m 10,3 km/h (2 Bft)
19.02.2014 03:44 6,8 C 5,0 C 92 % 1010,5 hPa 0,0 l/m 0 min 0 min 0,0 UV-I 0 W/m 5,1 km/h (1 Bft)
19.02.2014 03:46 6,8 C 5,0 C 92 % 1010,5 hPa 0,0 l/m 0 min 0 min 0,0 UV-I 0 W/m 7,7 km/h (2 Bft)
19.02.2014 03:48 6,8 C 5,0 C 92 % 1010,5 hPa 0,0 l/m 0 min 0 min 0,0 UV-I 0 W/m 5,1 km/h (1 Bft)
19.02.2014 03:50 6,8 C 5,0 C 92 % 1010,5 hPa 0,0 l/m 0 min 0 min 0,0 UV-I 0 W/m 7,7 km/h (2 Bft)
19.02.2014 03:52 6,8 C 5,0 C 92 % 1010,4 hPa 0,0 l/m 0 min 0 min 0,0 UV-I 0 W/m 2,6 km/h (1 Bft)
19.02.2014 03:54 6,8 C 5,0 C 92 % 1010,4 hPa 0,0 l/m 0 min 0 min 0,0 UV-I 0 W/m 15,4 km/h (3 Bft)
19.02.2014 03:56 6,8 C 5,0 C 92 % 1010,4 hPa 0,0 l/m 0 min 0 min 0,0 UV-I 0 W/m 12,9 km/h (3 Bft)
19.02.2014 03:58 6,8 C 5,0 C 92 % 1010,5 hPa 0,0 l/m 0 min 0 min 0,0 UV-I 0 W/m 10,3 km/h (2 Bft)
19.02.2014 04:00 6,8 C 5,0 C 92 % 1010,5 hPa 0,0 l/m 0 min 0 min 0,0 UV-I 0 W/m 15,4 km/h (3 Bft)
19.02.2014 04:02 6,8 C 5,0 C 92 % 1010,4 hPa 0,0 l/m 0 min 0 min 0,0 UV-I 0 W/m 0,0 km/h (0 Bft)
19.02.2014 04:04 6,8 C 5,0 C 92 % 1010,4 hPa 0,0 l/m 0 min 0 min 0,0 UV-I 0 W/m 5,1 km/h (1 Bft)
19.02.2014 04:06 6,8 C 5,0 C 92 % 1010,3 hPa 0,0 l/m 0 min 0 min 0,0 UV-I 0 W/m 10,3 km/h (2 Bft)
19.02.2014 04:08 6,8 C 5,0 C 92 % 1010,3 hPa 0,0 l/m 0 min 0 min 0,0 UV-I 0 W/m 2,6 km/h (1 Bft)
19.02.2014 04:10 6,8 C 5,0 C 92 % 1010,4 hPa 0,0 l/m 0 min 0 min 0,0 UV-I 0 W/m 12,9 km/h (3 Bft)
19.02.2014 04:12 6,8 C 5,0 C 92 % 1010,4 hPa 0,0 l/m 0 min 0 min 0,0 UV-I 0 W/m 7,7 km/h (2 Bft)
19.02.2014 04:14 6,8 C 5,0 C 92 % 1010,3 hPa 0,0 l/m 0 min 0 min 0,0 UV-I 0 W/m 18,0 km/h (3 Bft)
19.02.2014 04:16 6,8 C 5,0 C 92 % 1010,2 hPa 0,0 l/m 0 min 0 min 0,0 UV-I 0 W/m 7,7 km/h (2 Bft)
19.02.2014 04:18 6,8 C 5,0 C 92 % 1010,2 hPa 0,0 l/m 0 min 0 min 0,0 UV-I 0 W/m 7,7 km/h (2 Bft)
19.02.2014 04:20 6,8 C 5,0 C 92 % 1010,2 hPa 0,0 l/m 0 min 0 min 0,0 UV-I 0 W/m 5,1 km/h (1 Bft)
19.02.2014 04:22 6,8 C 5,0 C 92 % 1010,2 hPa 0,0 l/m 0 min 0 min 0,0 UV-I 0 W/m 2,6 km/h (1 Bft)
19.02.2014 04:24 6,8 C 5,0 C 92 % 1010,2 hPa 0,0 l/m 0 min 0 min 0,0 UV-I 0 W/m 12,9 km/h (3 Bft)
19.02.2014 04:26 6,8 C 5,0 C 92 % 1010,2 hPa 0,0 l/m 0 min 0 min 0,0 UV-I 0 W/m 12,9 km/h (3 Bft)
19.02.2014 04:28 6,8 C 5,0 C 92 % 1010,1 hPa 0,0 l/m 0 min 0 min 0,0 UV-I 0 W/m 7,7 km/h (2 Bft)
19.02.2014 04:30 6,8 C 5,0 C 92 % 1010,1 hPa 0,0 l/m 0 min 0 min 0,0 UV-I 0 W/m 0,0 km/h (0 Bft)
19.02.2014 04:32 6,7 C 5,0 C 92 % 1010,1 hPa 0,0 l/m 0 min 0 min 0,0 UV-I 0 W/m 0,0 km/h (0 Bft)
19.02.2014 04:34 6,8 C 5,0 C 92 % 1010,1 hPa 0,0 l/m 0 min 0 min 0,0 UV-I 0 W/m 10,3 km/h (2 Bft)
19.02.2014 04:36 6,8 C 5,0 C 92 % 1010,1 hPa 0,0 l/m 0 min 0 min 0,0 UV-I 0 W/m 7,7 km/h (2 Bft)
19.02.2014 04:38 6,8 C 5,0 C 92 % 1010,0 hPa 0,0 l/m 0 min 2 min 0,0 UV-I 0 W/m 20,6 km/h (4 Bft)
19.02.2014 04:40 6,8 C 5,0 C 92 % 1010,0 hPa 0,0 l/m 0 min 0 min 0,0 UV-I 0 W/m 10,3 km/h (2 Bft)
19.02.2014 04:42 6,8 C 5,0 C 92 % 1010,0 hPa 0,0 l/m 0 min 0 min 0,0 UV-I 0 W/m 18,0 km/h (3 Bft)
19.02.2014 04:44 6,8 C 5,0 C 92 % 1010,0 hPa 0,0 l/m 0 min 0 min 0,0 UV-I 0 W/m 2,6 km/h (1 Bft)
19.02.2014 04:46 6,8 C 5,0 C 92 % 1010,0 hPa 0,0 l/m 0 min 0 min 0,0 UV-I 0 W/m 7,7 km/h (2 Bft)
19.02.2014 04:48 6,8 C 5,0 C 92 % 1010,1 hPa 0,0 l/m 0 min 0 min 0,0 UV-I 0 W/m 7,7 km/h (2 Bft)
19.02.2014 04:50 6,8 C 5,0 C 92 % 1010,1 hPa 0,0 l/m 0 min 0 min 0,0 UV-I 0 W/m 10,3 km/h (2 Bft)
19.02.2014 04:52 6,8 C 5,0 C 92 % 1010,1 hPa 0,0 l/m 0 min 2 min 0,0 UV-I 0 W/m 5,1 km/h (1 Bft)
19.02.2014 04:54 6,8 C 5,0 C 92 % 1010,2 hPa 0,0 l/m 0 min 2 min 0,0 UV-I 0 W/m 15,4 km/h (3 Bft)
19.02.2014 04:56 6,8 C 5,0 C 92 % 1010,2 hPa 0,0 l/m 0 min 2 min 0,0 UV-I 0 W/m 2,6 km/h (1 Bft)
19.02.2014 04:58 6,8 C 5,0 C 92 % 1010,2 hPa 0,0 l/m 0 min 2 min 0,0 UV-I 0 W/m 7,7 km/h (2 Bft)
19.02.2014 05:00 6,8 C 5,0 C 92 % 1010,2 hPa 0,0 l/m 0 min 0 min 0,0 UV-I 0 W/m 5,1 km/h (1 Bft)
19.02.2014 05:02 6,8 C 5,0 C 92 % 1010,2 hPa 0,0 l/m 0 min 0 min 0,0 UV-I 0 W/m 10,3 km/h (2 Bft)
19.02.2014 05:04 6,8 C 5,0 C 92 % 1010,2 hPa 0,0 l/m 0 min 0 min 0,0 UV-I 0 W/m 12,9 km/h (3 Bft)
19.02.2014 05:06 6,8 C 5,0 C 92 % 1010,2 hPa 0,0 l/m 0 min 0 min 0,0 UV-I 0 W/m 0,0 km/h (0 Bft)
19.02.2014 05:08 6,7 C 5,0 C 92 % 1010,3 hPa 0,0 l/m 0 min 0 min 0,0 UV-I 0 W/m 10,3 km/h (2 Bft)
19.02.2014 05:10 6,7 C 5,0 C 92 % 1010,3 hPa 0,0 l/m 0 min 0 min 0,0 UV-I 0 W/m 10,3 km/h (2 Bft)
19.02.2014 05:12 6,7 C 5,0 C 92 % 1010,3 hPa 0,0 l/m 0 min 0 min 0,0 UV-I 0 W/m 7,7 km/h (2 Bft)
19.02.2014 05:14 6,7 C 5,0 C 93 % 1010,2 hPa 0,0 l/m 0 min 0 min 0,0 UV-I 0 W/m 2,6 km/h (1 Bft)
19.02.2014 05:16 6,7 C 5,0 C 93 % 1010,2 hPa 0,0 l/m 0 min 0 min 0,0 UV-I 0 W/m 15,4 km/h (3 Bft)
19.02.2014 05:18 6,7 C 5,0 C 93 % 1010,3 hPa 0,0 l/m 0 min 0 min 0,0 UV-I 0 W/m 15,4 km/h (3 Bft)
19.02.2014 05:20 6,7 C 5,0 C 93 % 1010,3 hPa 0,0 l/m 0 min 0 min 0,0 UV-I 0 W/m 7,7 km/h (2 Bft)
19.02.2014 05:22 6,7 C 5,0 C 93 % 1010,4 hPa 0,0 l/m 0 min 0 min 0,0 UV-I 0 W/m 7,7 km/h (2 Bft)
19.02.2014 05:24 6,7 C 5,0 C 93 % 1010,4 hPa 0,0 l/m 0 min 0 min 0,0 UV-I 0 W/m 7,7 km/h (2 Bft)
19.02.2014 05:26 6,7 C 5,0 C 93 % 1010,3 hPa 0,0 l/m 0 min 0 min 0,0 UV-I 0 W/m 15,4 km/h (3 Bft)
19.02.2014 05:28 6,8 C 5,0 C 92 % 1010,4 hPa 0,0 l/m 0 min 0 min 0,0 UV-I 0 W/m 0,0 km/h (0 Bft)
19.02.2014 05:30 6,8 C 5,0 C 92 % 1010,3 hPa 0,0 l/m 0 min 0 min 0,0 UV-I 0 W/m 0,0 km/h (0 Bft)
19.02.2014 05:32 6,8 C 5,0 C 92 % 1010,4 hPa 0,0 l/m 0 min 0 min 0,0 UV-I 0 W/m 2,6 km/h (1 Bft)
19.02.2014 05:34 6,8 C 5,0 C 92 % 1010,4 hPa 0,0 l/m 0 min 0 min 0,0 UV-I 0 W/m 7,7 km/h (2 Bft)
19.02.2014 05:36 6,8 C 5,0 C 92 % 1010,4 hPa 0,0 l/m 0 min 0 min 0,0 UV-I 0 W/m 7,7 km/h (2 Bft)
19.02.2014 05:38 6,8 C 5,0 C 92 % 1010,3 hPa 0,0 l/m 0 min 0 min 0,0 UV-I 0 W/m 2,6 km/h (1 Bft)
19.02.2014 05:40 6,8 C 5,0 C 92 % 1010,3 hPa 0,0 l/m 0 min 0 min 0,0 UV-I 0 W/m 2,6 km/h (1 Bft)
19.02.2014 05:42 6,7 C 5,0 C 92 % 1010,3 hPa 0,0 l/m 0 min 0 min 0,0 UV-I 0 W/m 5,1 km/h (1 Bft)
19.02.2014 05:44 6,7 C 5,0 C 92 % 1010,3 hPa 0,0 l/m 0 min 0 min 0,0 UV-I 0 W/m 10,3 km/h (2 Bft)
19.02.2014 05:46 6,8 C 5,0 C 92 % 1010,3 hPa 0,0 l/m 0 min 0 min 0,0 UV-I 0 W/m 7,7 km/h (2 Bft)
19.02.2014 05:48 6,8 C 5,0 C 92 % 1010,4 hPa 0,0 l/m 0 min 0 min 0,0 UV-I 0 W/m 7,7 km/h (2 Bft)
19.02.2014 05:50 6,8 C 5,0 C 92 % 1010,4 hPa 0,0 l/m 0 min 0 min 0,0 UV-I 0 W/m 5,1 km/h (1 Bft)
19.02.2014 05:52 6,8 C 5,0 C 92 % 1010,4 hPa 0,0 l/m 0 min 2 min 0,0 UV-I 0 W/m 7,7 km/h (2 Bft)
19.02.2014 05:54 6,8 C 5,0 C 92 % 1010,4 hPa 0,0 l/m 0 min 2 min 0,0 UV-I 0 W/m 0,0 km/h (0 Bft)
19.02.2014 05:56 6,8 C 5,0 C 92 % 1010,4 hPa 0,0 l/m 0 min 2 min 0,0 UV-I 0 W/m 5,1 km/h (1 Bft)
19.02.2014 05:58 6,8 C 5,0 C 92 % 1010,4 hPa 0,0 l/m 0 min 2 min 0,0 UV-I 0 W/m 5,1 km/h (1 Bft)
19.02.2014 06:00 6,8 C 5,0 C 92 % 1010,5 hPa 0,0 l/m 0 min 2 min 0,0 UV-I 0 W/m 2,6 km/h (1 Bft)
19.02.2014 06:02 6,8 C 5,0 C 92 % 1010,4 hPa 0,2 l/m 0 min 2 min 0,0 UV-I 0 W/m 10,3 km/h (2 Bft)
19.02.2014 06:04 6,8 C 5,0 C 92 % 1010,4 hPa 0,0 l/m 0 min 2 min 0,0 UV-I 0 W/m 2,6 km/h (1 Bft)
19.02.2014 06:06 6,7 C 5,0 C 92 % 1010,5 hPa 0,0 l/m 0 min 2 min 0,0 UV-I 0 W/m 10,3 km/h (2 Bft)
19.02.2014 06:08 6,7 C 5,0 C 92 % 1010,4 hPa 0,0 l/m 0 min 2 min 0,0 UV-I 0 W/m 15,4 km/h (3 Bft)
19.02.2014 06:10 6,7 C 5,0 C 93 % 1010,4 hPa 0,0 l/m 0 min 2 min 0,0 UV-I 0 W/m 10,3 km/h (2 Bft)
19.02.2014 06:12 6,7 C 5,0 C 93 % 1010,4 hPa 0,0 l/m 0 min 2 min 0,0 UV-I 0 W/m 0,0 km/h (0 Bft)
19.02.2014 06:14 6,7 C 5,0 C 93 % 1010,4 hPa 0,0 l/m 0 min 2 min 0,0 UV-I 0 W/m 7,7 km/h (2 Bft)
19.02.2014 06:16 6,7 C 5,0 C 93 % 1010,5 hPa 0,0 l/m 0 min 2 min 0,0 UV-I 0 W/m 2,6 km/h (1 Bft)
19.02.2014 06:18 6,7 C 5,0 C 93 % 1010,4 hPa 0,0 l/m 0 min 0 min 0,0 UV-I 0 W/m 5,1 km/h (1 Bft)
19.02.2014 06:20 6,7 C 5,0 C 93 % 1010,5 hPa 0,0 l/m 0 min 0 min 0,0 UV-I 0 W/m 12,9 km/h (3 Bft)
19.02.2014 06:22 6,7 C 5,0 C 93 % 1010,5 hPa 0,0 l/m 0 min 2 min 0,0 UV-I 0 W/m 5,1 km/h (1 Bft)
19.02.2014 06:24 6,7 C 5,0 C 93 % 1010,5 hPa 0,0 l/m 0 min 2 min 0,0 UV-I 0 W/m 2,6 km/h (1 Bft)
19.02.2014 06:26 6,7 C 5,0 C 93 % 1010,5 hPa 0,0 l/m 0 min 2 min 0,0 UV-I 0 W/m 5,1 km/h (1 Bft)
19.02.2014 06:28 6,6 C 5,0 C 93 % 1010,5 hPa 0,0 l/m 0 min 0 min 0,0 UV-I 0 W/m 0,0 km/h (0 Bft)
19.02.2014 06:30 6,6 C 5,0 C 93 % 1010,5 hPa 0,0 l/m 0 min 0 min 0,0 UV-I 0 W/m 2,6 km/h (1 Bft)
19.02.2014 06:32 6,6 C 5,0 C 93 % 1010,5 hPa 0,0 l/m 0 min 0 min 0,0 UV-I 0 W/m 18,0 km/h (3 Bft)
19.02.2014 06:34 6,6 C 5,0 C 94 % 1010,5 hPa 0,0 l/m 0 min 0 min 0,0 UV-I 0 W/m 15,4 km/h (3 Bft)
19.02.2014 06:36 6,6 C 5,0 C 94 % 1010,5 hPa 0,0 l/m 0 min 0 min 0,0 UV-I 0 W/m 7,7 km/h (2 Bft)
19.02.2014 06:38 6,6 C 5,0 C 94 % 1010,5 hPa 0,0 l/m 0 min 0 min 0,0 UV-I 0 W/m 0,0 km/h (0 Bft)
19.02.2014 06:40 6,6 C 5,0 C 94 % 1010,6 hPa 0,0 l/m 0 min 0 min 0,0 UV-I 0 W/m 7,7 km/h (2 Bft)
19.02.2014 06:42 6,6 C 5,0 C 94 % 1010,6 hPa 0,0 l/m 0 min 0 min 0,0 UV-I 0 W/m 5,1 km/h (1 Bft)
19.02.2014 06:44 6,6 C 5,0 C 94 % 1010,6 hPa 0,0 l/m 0 min 0 min 0,0 UV-I 0 W/m 5,1 km/h (1 Bft)
19.02.2014 06:46 6,6 C 5,0 C 94 % 1010,5 hPa 0,0 l/m 0 min 0 min 0,0 UV-I 0 W/m 0,0 km/h (0 Bft)
19.02.2014 06:48 6,6 C 5,0 C 94 % 1010,6 hPa 0,0 l/m 0 min 0 min 0,0 UV-I 0 W/m 0,0 km/h (0 Bft)
19.02.2014 06:50 6,6 C 5,0 C 94 % 1010,6 hPa 0,0 l/m 0 min 0 min 0,0 UV-I 0 W/m 15,4 km/h (3 Bft)
19.02.2014 06:52 6,6 C 5,0 C 94 % 1010,6 hPa 0,0 l/m 0 min 0 min 0,0 UV-I 0 W/m 10,3 km/h (2 Bft)
19.02.2014 06:54 6,6 C 5,0 C 94 % 1010,6 hPa 0,0 l/m 0 min 0 min 0,0 UV-I 0 W/m 10,3 km/h (2 Bft)
19.02.2014 06:56 6,6 C 5,0 C 94 % 1010,6 hPa 0,0 l/m 0 min 0 min 0,0 UV-I 0 W/m 10,3 km/h (2 Bft)
19.02.2014 06:58 6,7 C 5,0 C 94 % 1010,6 hPa 0,2 l/m 0 min 2 min 0,0 UV-I 0 W/m 7,7 km/h (2 Bft)
19.02.2014 07:00 6,7 C 5,0 C 94 % 1010,6 hPa 0,0 l/m 0 min 2 min 0,0 UV-I 0 W/m 0,0 km/h (0 Bft)
19.02.2014 07:02 6,7 C 5,0 C 94 % 1010,7 hPa 0,0 l/m 0 min 2 min 0,0 UV-I 0 W/m 10,3 km/h (2 Bft)
19.02.2014 07:04 6,6 C 5,0 C 94 % 1010,8 hPa 0,0 l/m 0 min 0 min 0,0 UV-I 0 W/m 10,3 km/h (2 Bft)
19.02.2014 07:06 6,7 C 5,0 C 94 % 1010,8 hPa 0,0 l/m 0 min 0 min 0,0 UV-I 0 W/m 5,1 km/h (1 Bft)
19.02.2014 07:08 6,7 C 5,0 C 94 % 1010,7 hPa 0,0 l/m 0 min 0 min 0,0 UV-I 0 W/m 7,7 km/h (2 Bft)
19.02.2014 07:10 6,6 C 5,0 C 94 % 1010,8 hPa 0,0 l/m 0 min 0 min 0,0 UV-I 0 W/m 5,1 km/h (1 Bft)
19.02.2014 07:12 6,6 C 5,0 C 94 % 1010,7 hPa 0,0 l/m 0 min 0 min 0,0 UV-I 0 W/m 0,0 km/h (0 Bft)
19.02.2014 07:14 6,7 C 5,0 C 94 % 1010,8 hPa 0,0 l/m 0 min 0 min 0,0 UV-I 0 W/m 10,3 km/h (2 Bft)
19.02.2014 07:16 6,7 C 5,0 C 94 % 1010,7 hPa 0,0 l/m 0 min 0 min 0,0 UV-I 0 W/m 5,1 km/h (1 Bft)
19.02.2014 07:18 6,7 C 5,0 C 94 % 1010,7 hPa 0,0 l/m 0 min 0 min 0,0 UV-I 0 W/m 7,7 km/h (2 Bft)
19.02.2014 07:20 6,7 C 5,0 C 94 % 1010,7 hPa 0,0 l/m 0 min 0 min 0,0 UV-I 0 W/m 0,0 km/h (0 Bft)
19.02.2014 07:22 6,7 C 5,0 C 94 % 1010,8 hPa 0,0 l/m 0 min 0 min 0,0 UV-I 0 W/m 7,7 km/h (2 Bft)
19.02.2014 07:24 6,7 C 5,0 C 94 % 1010,8 hPa 0,0 l/m 0 min 0 min 0,0 UV-I 0 W/m 10,3 km/h (2 Bft)
19.02.2014 07:26 6,7 C 5,0 C 94 % 1010,8 hPa 0,0 l/m 0 min 0 min 0,0 UV-I 0 W/m 10,3 km/h (2 Bft)
19.02.2014 07:28 6,7 C 5,0 C 94 % 1010,8 hPa 0,0 l/m 0 min 0 min 0,0 UV-I 0 W/m 10,3 km/h (2 Bft)
19.02.2014 07:30 6,7 C 5,0 C 94 % 1010,8 hPa 0,0 l/m 0 min 0 min 0,0 UV-I 0 W/m 7,7 km/h (2 Bft)
19.02.2014 07:32 6,7 C 5,0 C 94 % 1010,8 hPa 0,0 l/m 0 min 0 min 0,0 UV-I 0 W/m 10,3 km/h (2 Bft)
19.02.2014 07:34 6,7 C 5,0 C 94 % 1010,9 hPa 0,0 l/m 0 min 0 min 0,0 UV-I 0 W/m 15,4 km/h (3 Bft)
19.02.2014 07:36 6,8 C 5,0 C 94 % 1010,9 hPa 0,0 l/m 0 min 0 min 0,0 UV-I 0 W/m 12,9 km/h (3 Bft)
19.02.2014 07:38 6,8 C 5,0 C 94 % 1010,8 hPa 0,0 l/m 0 min 0 min 0,0 UV-I 0 W/m 7,7 km/h (2 Bft)
19.02.2014 07:40 6,8 C 5,0 C 94 % 1010,9 hPa 0,0 l/m 0 min 0 min 0,0 UV-I 0 W/m 10,3 km/h (2 Bft)
19.02.2014 07:42 6,7 C 5,0 C 94 % 1011,0 hPa 0,0 l/m 0 min 0 min 0,0 UV-I 0 W/m 5,1 km/h (1 Bft)
19.02.2014 07:44 6,7 C 5,0 C 94 % 1011,0 hPa 0,0 l/m 0 min 0 min 0,0 UV-I 0 W/m 2,6 km/h (1 Bft)
19.02.2014 07:46 6,7 C 5,0 C 94 % 1011,0 hPa 0,0 l/m 0 min 0 min 0,0 UV-I 0 W/m 10,3 km/h (2 Bft)
19.02.2014 07:48 6,7 C 5,0 C 94 % 1011,0 hPa 0,0 l/m 0 min 0 min 0,0 UV-I 5 W/m 5,1 km/h (1 Bft)
19.02.2014 07:50 6,7 C 5,0 C 94 % 1011,0 hPa 0,0 l/m 0 min 0 min 0,0 UV-I 0 W/m 0,0 km/h (0 Bft)
19.02.2014 07:52 6,7 C 5,0 C 94 % 1011,1 hPa 0,0 l/m 0 min 0 min 0,0 UV-I 5 W/m 7,7 km/h (2 Bft)
19.02.2014 07:54 6,7 C 5,0 C 94 % 1011,2 hPa 0,0 l/m 0 min 0 min 0,0 UV-I 5 W/m 5,1 km/h (1 Bft)
19.02.2014 07:56 6,8 C 5,0 C 94 % 1011,2 hPa 0,0 l/m 0 min 0 min 0,0 UV-I 5 W/m 10,3 km/h (2 Bft)
19.02.2014 07:58 6,7 C 5,0 C 94 % 1011,1 hPa 0,0 l/m 0 min 0 min 0,0 UV-I 5 W/m 7,7 km/h (2 Bft)
19.02.2014 08:00 6,8 C 5,0 C 94 % 1011,2 hPa 0,0 l/m 0 min 0 min 0,0 UV-I 7 W/m 18,0 km/h (3 Bft)
19.02.2014 08:02 6,8 C 5,0 C 94 % 1011,1 hPa 0,0 l/m 0 min 0 min 0,0 UV-I 11 W/m 2,6 km/h (1 Bft)
19.02.2014 08:04 6,8 C 5,0 C 94 % 1011,1 hPa 0,0 l/m 0 min 0 min 0,0 UV-I 12 W/m 10,3 km/h (2 Bft)
19.02.2014 08:06 6,8 C 5,0 C 94 % 1011,2 hPa 0,0 l/m 0 min 0 min 0,0 UV-I 9 W/m 0,0 km/h (0 Bft)
19.02.2014 08:08 6,8 C 5,0 C 94 % 1011,2 hPa 0,0 l/m 0 min 0 min 0,0 UV-I 14 W/m 0,0 km/h (0 Bft)
19.02.2014 08:10 6,8 C 5,0 C 94 % 1011,2 hPa 0,0 l/m 0 min 0 min 0,0 UV-I 16 W/m 0,0 km/h (0 Bft)
19.02.2014 08:12 6,8 C 5,0 C 94 % 1011,3 hPa 0,0 l/m 0 min 0 min 0,0 UV-I 18 W/m 10,3 km/h (2 Bft)
19.02.2014 08:14 6,8 C 5,0 C 94 % 1011,2 hPa 0,0 l/m 0 min 0 min 0,0 UV-I 16 W/m 0,0 km/h (0 Bft)
19.02.2014 08:16 6,8 C 5,0 C 94 % 1011,2 hPa 0,0 l/m 0 min 0 min 0,0 UV-I 19 W/m 5,1 km/h (1 Bft)
19.02.2014 08:18 6,8 C 5,0 C 94 % 1011,2 hPa 0,0 l/m 0 min 0 min 0,0 UV-I 19 W/m 5,1 km/h (1 Bft)
19.02.2014 08:20 6,8 C 5,0 C 94 % 1011,2 hPa 0,0 l/m 0 min 0 min 0,0 UV-I 23 W/m 10,3 km/h (2 Bft)
19.02.2014 08:22 6,8 C 5,0 C 94 % 1011,1 hPa 0,0 l/m 0 min 0 min 0,0 UV-I 26 W/m 2,6 km/h (1 Bft)
19.02.2014 08:24 6,9 C 5,6 C 94 % 1011,1 hPa 0,0 l/m 0 min 0 min 0,0 UV-I 23 W/m 7,7 km/h (2 Bft)
19.02.2014 08:26 6,9 C 5,6 C 94 % 1011,1 hPa 0,0 l/m 0 min 0 min 0,0 UV-I 25 W/m 10,3 km/h (2 Bft)
19.02.2014 08:28 6,9 C 5,6 C 94 % 1011,1 hPa 0,0 l/m 0 min 0 min 0,0 UV-I 30 W/m 0,0 km/h (0 Bft)
19.02.2014 08:30 6,9 C 5,6 C 94 % 1011,1 hPa 0,0 l/m 0 min 0 min 0,0 UV-I 33 W/m 2,6 km/h (1 Bft)
19.02.2014 08:32 6,9 C 5,6 C 94 % 1011,2 hPa 0,0 l/m 0 min 0 min 0,0 UV-I 40 W/m 12,9 km/h (3 Bft)
19.02.2014 08:34 6,9 C 5,6 C 94 % 1011,2 hPa 0,0 l/m 0 min 0 min 0,0 UV-I 28 W/m 15,4 km/h (3 Bft)
19.02.2014 08:36 6,9 C 5,6 C 94 % 1011,2 hPa 0,0 l/m 0 min 0 min 0,0 UV-I 26 W/m 15,4 km/h (3 Bft)
19.02.2014 08:38 6,9 C 5,6 C 94 % 1011,3 hPa 0,0 l/m 0 min 0 min 0,0 UV-I 32 W/m 5,1 km/h (1 Bft)
19.02.2014 08:40 7,0 C 5,6 C 94 % 1011,3 hPa 0,0 l/m 0 min 0 min 0,0 UV-I 30 W/m 7,7 km/h (2 Bft)
19.02.2014 08:42 7,0 C 5,6 C 94 % 1011,4 hPa 0,0 l/m 0 min 0 min 0,0 UV-I 33 W/m 2,6 km/h (1 Bft)
19.02.2014 08:44 7,0 C 5,6 C 94 % 1011,3 hPa 0,0 l/m 0 min 0 min 0,0 UV-I 44 W/m 12,9 km/h (3 Bft)
19.02.2014 08:46 7,0 C 5,6 C 94 % 1011,3 hPa 0,0 l/m 0 min 0 min 0,0 UV-I 47 W/m 10,3 km/h (2 Bft)
19.02.2014 08:48 7,0 C 5,6 C 94 % 1011,3 hPa 0,0 l/m 0 min 0 min 0,0 UV-I 56 W/m 5,1 km/h (1 Bft)
19.02.2014 08:50 7,1 C 5,6 C 94 % 1011,4 hPa 0,0 l/m 0 min 0 min 0,0 UV-I 69 W/m 5,1 km/h (1 Bft)
19.02.2014 08:52 7,1 C 5,6 C 94 % 1011,4 hPa 0,0 l/m 0 min 0 min 0,0 UV-I 86 W/m 10,3 km/h (2 Bft)
19.02.2014 08:54 7,1 C 5,6 C 94 % 1011,4 hPa 0,0 l/m 0 min 0 min 0,0 UV-I 60 W/m 7,7 km/h (2 Bft)
19.02.2014 08:56 7,2 C 5,6 C 94 % 1011,4 hPa 0,0 l/m 0 min 0 min 0,0 UV-I 60 W/m 0,0 km/h (0 Bft)
19.02.2014 08:58 7,2 C 5,6 C 94 % 1011,4 hPa 0,0 l/m 0 min 0 min 0,0 UV-I 62 W/m 5,1 km/h (1 Bft)
19.02.2014 09:00 7,2 C 5,6 C 94 % 1011,4 hPa 0,0 l/m 0 min 0 min 0,0 UV-I 60 W/m 10,3 km/h (2 Bft)
19.02.2014 09:02 7,2 C 5,6 C 94 % 1011,4 hPa 0,0 l/m 0 min 0 min 0,0 UV-I 60 W/m 7,7 km/h (2 Bft)
19.02.2014 09:04 7,2 C 5,6 C 94 % 1011,5 hPa 0,0 l/m 0 min 0 min 0,0 UV-I 65 W/m 0,0 km/h (0 Bft)
19.02.2014 09:06 7,2 C 5,6 C 94 % 1011,5 hPa 0,0 l/m 0 min 0 min 0,0 UV-I 62 W/m 7,7 km/h (2 Bft)
19.02.2014 09:08 7,2 C 5,6 C 94 % 1011,5 hPa 0,0 l/m 0 min 0 min 0,0 UV-I 49 W/m 15,4 km/h (3 Bft)
19.02.2014 09:10 7,2 C 5,6 C 94 % 1011,6 hPa 0,0 l/m 0 min 0 min 0,0 UV-I 40 W/m 7,7 km/h (2 Bft)
19.02.2014 09:12 7,2 C 5,6 C 94 % 1011,6 hPa 0,0 l/m 0 min 0 min 0,0 UV-I 39 W/m 7,7 km/h (2 Bft)
19.02.2014 09:14 7,2 C 5,6 C 94 % 1011,7 hPa 0,0 l/m 0 min 0 min 0,0 UV-I 40 W/m 7,7 km/h (2 Bft)
19.02.2014 09:16 7,2 C 5,6 C 94 % 1011,8 hPa 0,0 l/m 0 min 0 min 0,0 UV-I 42 W/m 10,3 km/h (2 Bft)
19.02.2014 09:18 7,3 C 5,6 C 93 % 1011,8 hPa 0,0 l/m 0 min 0 min 0,0 UV-I 35 W/m 23,2 km/h (4 Bft)
19.02.2014 09:20 7,3 C 5,6 C 93 % 1011,8 hPa 0,0 l/m 0 min 0 min 0,0 UV-I 37 W/m 10,3 km/h (2 Bft)
19.02.2014 09:22 7,2 C 5,6 C 93 % 1011,8 hPa 0,0 l/m 0 min 0 min 0,0 UV-I 42 W/m 10,3 km/h (2 Bft)
19.02.2014 09:24 7,3 C 5,6 C 93 % 1011,8 hPa 0,0 l/m 0 min 0 min 0,0 UV-I 44 W/m 10,3 km/h (2 Bft)
19.02.2014 09:26 7,3 C 5,6 C 93 % 1011,8 hPa 0,0 l/m 0 min 0 min 0,0 UV-I 46 W/m 7,7 km/h (2 Bft)
19.02.2014 09:28 7,3 C 5,6 C 93 % 1011,8 hPa 0,0 l/m 0 min 0 min 0,0 UV-I 44 W/m 5,1 km/h (1 Bft)
19.02.2014 09:30 7,3 C 5,6 C 93 % 1011,9 hPa 0,0 l/m 0 min 0 min 0,0 UV-I 49 W/m 10,3 km/h (2 Bft)
19.02.2014 09:32 7,3 C 5,6 C 93 % 1011,8 hPa 0,0 l/m 0 min 0 min 0,0 UV-I 47 W/m 10,3 km/h (2 Bft)
19.02.2014 09:34 7,3 C 5,6 C 93 % 1011,8 hPa 0,0 l/m 0 min 0 min 0,0 UV-I 49 W/m 12,9 km/h (3 Bft)
19.02.2014 09:36 7,3 C 5,6 C 93 % 1011,8 hPa 0,0 l/m 0 min 0 min 0,0 UV-I 42 W/m 10,3 km/h (2 Bft)
19.02.2014 09:38 7,3 C 5,6 C 93 % 1011,9 hPa 0,0 l/m 0 min 0 min 0,0 UV-I 42 W/m 10,3 km/h (2 Bft)
19.02.2014 09:40 7,3 C 5,6 C 93 % 1011,9 hPa 0,0 l/m 0 min 0 min 0,0 UV-I 37 W/m 10,3 km/h (2 Bft)
19.02.2014 09:42 7,3 C 5,6 C 93 % 1012,0 hPa 0,0 l/m 0 min 0 min 0,0 UV-I 40 W/m 5,1 km/h (1 Bft)
19.02.2014 09:44 7,4 C 5,6 C 93 % 1012,0 hPa 0,0 l/m 0 min 0 min 0,0 UV-I 44 W/m 7,7 km/h (2 Bft)
19.02.2014 09:46 7,4 C 6,1 C 93 % 1012,0 hPa 0,0 l/m 0 min 0 min 0,0 UV-I 56 W/m 10,3 km/h (2 Bft)
19.02.2014 09:48 7,4 C 6,1 C 93 % 1012,1 hPa 0,0 l/m 0 min 0 min 0,0 UV-I 72 W/m 10,3 km/h (2 Bft)
19.02.2014 09:50 7,4 C 6,1 C 93 % 1012,0 hPa 0,0 l/m 0 min 0 min 0,0 UV-I 88 W/m 5,1 km/h (1 Bft)
19.02.2014 09:52 7,4 C 6,1 C 93 % 1012,1 hPa 0,0 l/m 0 min 0 min 0,0 UV-I 97 W/m 10,3 km/h (2 Bft)
19.02.2014 09:54 7,5 C 6,1 C 93 % 1012,1 hPa 0,0 l/m 0 min 0 min 0,0 UV-I 91 W/m 10,3 km/h (2 Bft)
19.02.2014 09:56 7,5 C 6,1 C 93 % 1012,1 hPa 0,0 l/m 0 min 0 min 0,0 UV-I 88 W/m 23,2 km/h (4 Bft)
19.02.2014 09:58 7,5 C 6,1 C 93 % 1012,1 hPa 0,0 l/m 0 min 0 min 0,0 UV-I 77 W/m 15,4 km/h (3 Bft)
19.02.2014 10:00 7,6 C 6,1 C 92 % 1012,1 hPa 0,0 l/m 0 min 0 min 0,0 UV-I 77 W/m 12,9 km/h (3 Bft)
19.02.2014 10:02 7,6 C 6,1 C 92 % 1012,2 hPa 0,0 l/m 0 min 0 min 0,0 UV-I 63 W/m 12,9 km/h (3 Bft)
19.02.2014 10:04 7,6 C 6,1 C 92 % 1012,2 hPa 0,0 l/m 0 min 0 min 0,0 UV-I 72 W/m 10,3 km/h (2 Bft)
19.02.2014 10:06 7,6 C 6,1 C 92 % 1012,3 hPa 0,0 l/m 0 min 0 min 0,0 UV-I 63 W/m 7,7 km/h (2 Bft)
19.02.2014 10:08 7,6 C 6,1 C 92 % 1012,3 hPa 0,0 l/m 0 min 0 min 0,0 UV-I 51 W/m 7,7 km/h (2 Bft)
19.02.2014 10:10 7,6 C 6,1 C 92 % 1012,3 hPa 0,0 l/m 0 min 0 min 0,0 UV-I 63 W/m 10,3 km/h (2 Bft)
19.02.2014 10:12 7,6 C 6,1 C 92 % 1012,4 hPa 0,0 l/m 0 min 0 min 0,0 UV-I 56 W/m 7,7 km/h (2 Bft)
19.02.2014 10:14 7,6 C 6,1 C 92 % 1012,4 hPa 0,0 l/m 0 min 0 min 0,0 UV-I 63 W/m 12,9 km/h (3 Bft)
19.02.2014 10:16 7,6 C 6,1 C 92 % 1012,4 hPa 0,0 l/m 0 min 0 min 0,0 UV-I 49 W/m 15,4 km/h (3 Bft)
19.02.2014 10:18 7,6 C 6,1 C 92 % 1012,4 hPa 0,0 l/m 0 min 0 min 0,0 UV-I 49 W/m 15,4 km/h (3 Bft)
19.02.2014 10:20 7,6 C 6,1 C 92 % 1012,4 hPa 0,0 l/m 0 min 0 min 0,0 UV-I 44 W/m 10,3 km/h (2 Bft)
19.02.2014 10:22 7,6 C 6,1 C 92 % 1012,4 hPa 0,0 l/m 0 min 0 min 0,0 UV-I 58 W/m 10,3 km/h (2 Bft)
19.02.2014 10:24 7,6 C 6,1 C 92 % 1012,5 hPa 0,0 l/m 0 min 0 min 0,0 UV-I 79 W/m 7,7 km/h (2 Bft)
19.02.2014 10:26 7,7 C 6,1 C 92 % 1012,5 hPa 0,0 l/m 0 min 0 min 0,0 UV-I 109 W/m 7,7 km/h (2 Bft)
19.02.2014 10:28 7,7 C 6,7 C 92 % 1012,4 hPa 0,0 l/m 0 min 0 min 0,0 UV-I 98 W/m 10,3 km/h (2 Bft)
19.02.2014 10:30 7,7 C 6,7 C 92 % 1012,4 hPa 0,0 l/m 0 min 0 min 0,0 UV-I 100 W/m 12,9 km/h (3 Bft)
19.02.2014 10:32 7,7 C 6,7 C 92 % 1012,4 hPa 0,0 l/m 0 min 0 min 0,0 UV-I 116 W/m 15,4 km/h (3 Bft)
19.02.2014 10:34 7,8 C 6,7 C 92 % 1012,5 hPa 0,0 l/m 0 min 0 min 0,0 UV-I 97 W/m 12,9 km/h (3 Bft)
19.02.2014 10:36 7,8 C 6,7 C 92 % 1012,5 hPa 0,0 l/m 0 min 0 min 0,0 UV-I 90 W/m 12,9 km/h (3 Bft)
19.02.2014 10:38 7,8 C 6,7 C 91 % 1012,5 hPa 0,0 l/m 0 min 0 min 0,0 UV-I 81 W/m 12,9 km/h (3 Bft)
19.02.2014 10:40 7,8 C 6,7 C 91 % 1012,6 hPa 0,0 l/m 0 min 0 min 0,0 UV-I 72 W/m 18,0 km/h (3 Bft)
19.02.2014 10:42 7,8 C 6,7 C 91 % 1012,6 hPa 0,0 l/m 0 min 0 min 0,0 UV-I 69 W/m 7,7 km/h (2 Bft)
19.02.2014 10:44 7,8 C 6,7 C 91 % 1012,7 hPa 0,0 l/m 0 min 0 min 0,0 UV-I 62 W/m 18,0 km/h (3 Bft)
19.02.2014 10:46 7,8 C 6,7 C 91 % 1012,7 hPa 0,0 l/m 0 min 0 min 0,0 UV-I 56 W/m 12,9 km/h (3 Bft)
19.02.2014 10:48 7,8 C 6,7 C 91 % 1012,7 hPa 0,0 l/m 0 min 0 min 0,0 UV-I 62 W/m 10,3 km/h (2 Bft)
19.02.2014 10:50 7,8 C 6,7 C 91 % 1012,8 hPa 0,0 l/m 0 min 0 min 0,0 UV-I 62 W/m 7,7 km/h (2 Bft)
19.02.2014 10:52 7,8 C 6,7 C 91 % 1012,8 hPa 0,0 l/m 0 min 0 min 0,0 UV-I 65 W/m 12,9 km/h (3 Bft)
19.02.2014 10:54 7,8 C 6,7 C 91 % 1012,8 hPa 0,0 l/m 0 min 0 min 0,0 UV-I 90 W/m 12,9 km/h (3 Bft)
19.02.2014 10:56 7,8 C 6,7 C 91 % 1012,8 hPa 0,0 l/m 0 min 0 min 0,0 UV-I 86 W/m 15,4 km/h (3 Bft)
19.02.2014 10:58 7,8 C 6,7 C 91 % 1012,8 hPa 0,0 l/m 0 min 0 min 0,0 UV-I 130 W/m 7,7 km/h (2 Bft)
19.02.2014 11:00 7,9 C 7,2 C 91 % 1012,9 hPa 0,0 l/m 0 min 0 min 0,0 UV-I 118 W/m 15,4 km/h (3 Bft)
19.02.2014 11:02 7,9 C 7,2 C 91 % 1012,9 hPa 0,0 l/m 0 min 0 min 0,0 UV-I 91 W/m 25,7 km/h (4 Bft)
19.02.2014 11:04 7,9 C 7,2 C 91 % 1012,9 hPa 0,0 l/m 0 min 0 min 0,0 UV-I 81 W/m 10,3 km/h (2 Bft)
19.02.2014 11:06 7,9 C 7,2 C 91 % 1012,9 hPa 0,0 l/m 0 min 0 min 0,0 UV-I 97 W/m 7,7 km/h (2 Bft)
19.02.2014 11:08 7,9 C 7,2 C 91 % 1012,9 hPa 0,0 l/m 0 min 0 min 0,0 UV-I 72 W/m 15,4 km/h (3 Bft)
19.02.2014 11:10 7,9 C 6,7 C 91 % 1012,9 hPa 0,0 l/m 0 min 0 min 0,0 UV-I 83 W/m 12,9 km/h (3 Bft)
19.02.2014 11:12 8,0 C 6,7 C 91 % 1012,9 hPa 0,0 l/m 0 min 0 min 0,0 UV-I 72 W/m 7,7 km/h (2 Bft)
19.02.2014 11:14 7,9 C 6,7 C 91 % 1012,9 hPa 0,0 l/m 0 min 0 min 0,0 UV-I 98 W/m 7,7 km/h (2 Bft)
19.02.2014 11:16 8,0 C 6,7 C 91 % 1012,9 hPa 0,0 l/m 0 min 0 min 0,0 UV-I 72 W/m 10,3 km/h (2 Bft)
19.02.2014 11:18 8,0 C 7,2 C 91 % 1012,9 hPa 0,0 l/m 0 min 0 min 0,0 UV-I 81 W/m 10,3 km/h (2 Bft)
19.02.2014 11:20 8,0 C 7,2 C 91 % 1012,9 hPa 0,0 l/m 0 min 0 min 0,0 UV-I 151 W/m 5,1 km/h (1 Bft)
19.02.2014 11:22 8,0 C 7,2 C 91 % 1012,9 hPa 0,0 l/m 0 min 0 min 0,0 UV-I 137 W/m 12,9 km/h (3 Bft)
19.02.2014 11:24 8,1 C 7,2 C 91 % 1012,9 hPa 0,0 l/m 0 min 0 min 0,0 UV-I 111 W/m 10,3 km/h (2 Bft)
19.02.2014 11:26 8,1 C 7,2 C 91 % 1012,9 hPa 0,0 l/m 0 min 0 min 0,0 UV-I 153 W/m 7,7 km/h (2 Bft)
19.02.2014 11:28 8,1 C 7,2 C 91 % 1012,9 hPa 0,0 l/m 0 min 0 min 0,0 UV-I 127 W/m 7,7 km/h (2 Bft)
19.02.2014 11:30 8,2 C 7,2 C 91 % 1012,9 hPa 0,0 l/m 0 min 0 min 0,0 UV-I 190 W/m 12,9 km/h (3 Bft)
19.02.2014 11:32 8,2 C 7,8 C 91 % 1012,9 hPa 0,0 l/m 0 min 0 min 0,0 UV-I 160 W/m 7,7 km/h (2 Bft)
19.02.2014 11:34 8,3 C 7,8 C 90 % 1012,9 hPa 0,0 l/m 0 min 0 min 0,0 UV-I 146 W/m 12,9 km/h (3 Bft)
19.02.2014 11:36 8,3 C 7,8 C 90 % 1012,9 hPa 0,0 l/m 0 min 0 min 0,0 UV-I 135 W/m 7,7 km/h (2 Bft)
19.02.2014 11:38 8,4 C 7,8 C 90 % 1013,0 hPa 0,0 l/m 0 min 0 min 0,0 UV-I 158 W/m 5,1 km/h (1 Bft)
19.02.2014 11:40 8,4 C 7,8 C 90 % 1013,0 hPa 0,0 l/m 0 min 0 min 0,0 UV-I 155 W/m 12,9 km/h (3 Bft)
19.02.2014 11:42 8,4 C 7,8 C 90 % 1013,0 hPa 0,0 l/m 0 min 0 min 0,0 UV-I 148 W/m 7,7 km/h (2 Bft)
19.02.2014 11:44 8,4 C 7,8 C 90 % 1013,1 hPa 0,0 l/m 0 min 0 min 0,0 UV-I 193 W/m 12,9 km/h (3 Bft)
19.02.2014 11:46 8,5 C 7,8 C 90 % 1013,0 hPa 0,0 l/m 0 min 0 min 0,0 UV-I 179 W/m 5,1 km/h (1 Bft)
19.02.2014 11:48 8,6 C 8,3 C 90 % 1013,1 hPa 0,0 l/m 0 min 0 min 0,0 UV-I 188 W/m 2,6 km/h (1 Bft)
19.02.2014 11:50 8,6 C 8,3 C 90 % 1013,0 hPa 0,0 l/m 0 min 0 min 0,0 UV-I 160 W/m 10,3 km/h (2 Bft)
19.02.2014 11:52 8,6 C 8,3 C 90 % 1013,0 hPa 0,0 l/m 0 min 0 min 0,0 UV-I 209 W/m 12,9 km/h (3 Bft)
19.02.2014 11:54 8,7 C 8,3 C 89 % 1013,0 hPa 0,0 l/m 0 min 0 min 0,0 UV-I 223 W/m 15,4 km/h (3 Bft)
19.02.2014 11:56 8,7 C 8,9 C 89 % 1013,1 hPa 0,0 l/m 0 min 0 min 0,0 UV-I 190 W/m 15,4 km/h (3 Bft)
19.02.2014 11:58 8,7 C 8,9 C 89 % 1013,0 hPa 0,0 l/m 0 min 0 min 0,0 UV-I 146 W/m 10,3 km/h (2 Bft)
19.02.2014 12:00 8,8 C 8,9 C 89 % 1013,1 hPa 0,0 l/m 0 min 0 min 0,0 UV-I 183 W/m 5,1 km/h (1 Bft)
19.02.2014 12:02 8,8 C 8,9 C 89 % 1013,1 hPa 0,0 l/m 0 min 0 min 0,0 UV-I 172 W/m 10,3 km/h (2 Bft)
19.02.2014 12:04 8,8 C 8,3 C 89 % 1013,1 hPa 0,0 l/m 0 min 0 min 0,0 UV-I 160 W/m 15,4 km/h (3 Bft)
19.02.2014 12:06 8,8 C 8,9 C 89 % 1013,1 hPa 0,0 l/m 0 min 0 min 0,0 UV-I 186 W/m 10,3 km/h (2 Bft)
19.02.2014 12:08 8,8 C 8,9 C 89 % 1013,1 hPa 0,0 l/m 0 min 0 min 0,0 UV-I 113 W/m 7,7 km/h (2 Bft)
19.02.2014 12:10 8,8 C 8,9 C 89 % 1013,1 hPa 0,0 l/m 0 min 0 min 0,0 UV-I 118 W/m 5,1 km/h (1 Bft)
19.02.2014 12:12 8,8 C 8,3 C 89 % 1013,1 hPa 0,0 l/m 0 min 0 min 0,0 UV-I 91 W/m 15,4 km/h (3 Bft)
19.02.2014 12:14 8,8 C 8,3 C 89 % 1013,1 hPa 0,0 l/m 0 min 0 min 0,0 UV-I 67 W/m 15,4 km/h (3 Bft)
19.02.2014 12:16 8,7 C 8,3 C 88 % 1013,1 hPa 0,0 l/m 0 min 0 min 0,0 UV-I 135 W/m 7,7 km/h (2 Bft)
19.02.2014 12:18 8,7 C 8,3 C 88 % 1013,1 hPa 0,0 l/m 0 min 0 min 0,0 UV-I 146 W/m 12,9 km/h (3 Bft)
19.02.2014 12:20 8,7 C 8,3 C 88 % 1013,1 hPa 0,0 l/m 0 min 0 min 0,0 UV-I 153 W/m 7,7 km/h (2 Bft)
19.02.2014 12:22 8,7 C 8,3 C 88 % 1013,1 hPa 0,0 l/m 0 min 0 min 0,0 UV-I 139 W/m 15,4 km/h (3 Bft)
19.02.2014 12:24 8,7 C 8,3 C 88 % 1013,1 hPa 0,0 l/m 0 min 0 min 0,0 UV-I 190 W/m 12,9 km/h (3 Bft)
19.02.2014 12:26 8,7 C 8,3 C 88 % 1013,1 hPa 0,0 l/m 0 min 0 min 0,0 UV-I 134 W/m 18,0 km/h (3 Bft)
19.02.2014 12:28 8,7 C 8,3 C 88 % 1013,0 hPa 0,0 l/m 0 min 0 min 0,0 UV-I 137 W/m 10,3 km/h (2 Bft)
19.02.2014 12:30 8,7 C 8,3 C 88 % 1013,1 hPa 0,0 l/m 0 min 0 min 0,0 UV-I 181 W/m 10,3 km/h (2 Bft)
19.02.2014 12:32 8,8 C 8,3 C 88 % 1013,1 hPa 0,0 l/m 0 min 0 min 0,0 UV-I 229 W/m 12,9 km/h (3 Bft)
19.02.2014 12:34 8,8 C 8,9 C 88 % 1013,1 hPa 0,0 l/m 2 min 0 min 0,0 UV-I 267 W/m 10,3 km/h (2 Bft)
19.02.2014 12:36 9,0 C 8,9 C 88 % 1013,0 hPa 0,0 l/m 0 min 0 min 0,0 UV-I 236 W/m 7,7 km/h (2 Bft)
19.02.2014 12:38 9,1 C 8,9 C 88 % 1013,0 hPa 0,0 l/m 2 min 0 min 0,0 UV-I 290 W/m 10,3 km/h (2 Bft)
19.02.2014 12:40 9,2 C 8,9 C 87 % 1013,0 hPa 0,0 l/m 0 min 0 min 0,0 UV-I 211 W/m 2,6 km/h (1 Bft)
19.02.2014 12:42 9,3 C 8,9 C 87 % 1013,0 hPa 0,0 l/m 2 min 0 min 0,0 UV-I 287 W/m 7,7 km/h (2 Bft)
19.02.2014 12:44 9,3 C 8,9 C 87 % 1012,9 hPa 0,0 l/m 2 min 0 min 0,6 UV-I 348 W/m 20,6 km/h (4 Bft)
19.02.2014 12:46 9,4 C 9,4 C 86 % 1012,9 hPa 0,0 l/m 2 min 0 min 0,0 UV-I 526 W/m 10,3 km/h (2 Bft)
19.02.2014 12:48 9,5 C 9,4 C 85 % 1012,9 hPa 0,0 l/m 2 min 0 min 0,5 UV-I 483 W/m 12,9 km/h (3 Bft)
19.02.2014 12:50 9,7 C 9,4 C 86 % 1012,9 hPa 0,0 l/m 0 min 0 min 0,0 UV-I 137 W/m 5,1 km/h (1 Bft)
19.02.2014 12:52 9,7 C 8,9 C 85 % 1012,8 hPa 0,0 l/m 0 min 0 min 0,0 UV-I 216 W/m 10,3 km/h (2 Bft)
19.02.2014 12:54 9,6 C 8,9 C 85 % 1012,8 hPa 0,0 l/m 0 min 0 min 0,0 UV-I 134 W/m 18,0 km/h (3 Bft)
19.02.2014 12:56 9,3 C 8,3 C 84 % 1012,9 hPa 0,0 l/m 0 min 0 min 0,0 UV-I 109 W/m 12,9 km/h (3 Bft)
19.02.2014 12:58 9,2 C 8,3 C 84 % 1012,8 hPa 0,0 l/m 0 min 0 min 0,0 UV-I 146 W/m 7,7 km/h (2 Bft)
19.02.2014 13:00 9,1 C 8,3 C 85 % 1012,9 hPa 0,0 l/m 0 min 0 min 0,0 UV-I 118 W/m 15,4 km/h (3 Bft)
19.02.2014 13:02 9,0 C 8,3 C 85 % 1012,8 hPa 0,0 l/m 0 min 0 min 0,0 UV-I 113 W/m 15,4 km/h (3 Bft)
19.02.2014 13:04 8,9 C 8,3 C 85 % 1012,9 hPa 0,0 l/m 0 min 0 min 0,0 UV-I 77 W/m 20,6 km/h (4 Bft)
19.02.2014 13:06 8,8 C 7,8 C 85 % 1012,9 hPa 0,0 l/m 0 min 0 min 0,0 UV-I 81 W/m 10,3 km/h (2 Bft)
19.02.2014 13:08 8,8 C 7,8 C 85 % 1012,9 hPa 0,0 l/m 0 min 0 min 0,0 UV-I 114 W/m 12,9 km/h (3 Bft)
19.02.2014 13:10 8,8 C 8,3 C 86 % 1012,9 hPa 0,0 l/m 0 min 0 min 0,0 UV-I 153 W/m 12,9 km/h (3 Bft)
19.02.2014 13:12 8,8 C 8,3 C 86 % 1012,9 hPa 0,0 l/m 0 min 0 min 0,0 UV-I 160 W/m 15,4 km/h (3 Bft)
19.02.2014 13:14 8,8 C 8,3 C 86 % 1012,8 hPa 0,0 l/m 0 min 0 min 0,0 UV-I 197 W/m 12,9 km/h (3 Bft)
19.02.2014 13:16 8,9 C 8,9 C 86 % 1012,8 hPa 0,0 l/m 0 min 0 min 0,0 UV-I 253 W/m 12,9 km/h (3 Bft)
19.02.2014 13:18 8,9 C 8,9 C 86 % 1012,8 hPa 0,0 l/m 0 min 0 min 0,0 UV-I 234 W/m 7,7 km/h (2 Bft)
19.02.2014 13:20 9,1 C 8,9 C 86 % 1012,7 hPa 0,0 l/m 2 min 0 min 0,0 UV-I 294 W/m 7,7 km/h (2 Bft)
19.02.2014 13:22 9,2 C 9,4 C 87 % 1012,8 hPa 0,0 l/m 0 min 0 min 0,0 UV-I 246 W/m 15,4 km/h (3 Bft)
19.02.2014 13:24 9,3 C 9,4 C 87 % 1012,9 hPa 0,0 l/m 2 min 0 min 0,0 UV-I 404 W/m 15,4 km/h (3 Bft)
19.02.2014 13:26 9,3 C 8,9 C 86 % 1012,7 hPa 0,0 l/m 0 min 0 min 0,0 UV-I 179 W/m 10,3 km/h (2 Bft)
19.02.2014 13:28 9,3 C 8,9 C 85 % 1012,8 hPa 0,0 l/m 0 min 0 min 0,0 UV-I 142 W/m 12,9 km/h (3 Bft)
19.02.2014 13:30 9,3 C 8,9 C 85 % 1012,8 hPa 0,0 l/m 0 min 0 min 0,0 UV-I 155 W/m 7,7 km/h (2 Bft)
19.02.2014 13:32 9,2 C 8,9 C 84 % 1012,7 hPa 0,0 l/m 0 min 0 min 0,0 UV-I 127 W/m 7,7 km/h (2 Bft)
19.02.2014 13:34 9,2 C 8,3 C 84 % 1012,7 hPa 0,0 l/m 0 min 0 min 0,0 UV-I 156 W/m 10,3 km/h (2 Bft)
19.02.2014 13:36 9,1 C 8,3 C 84 % 1012,7 hPa 0,0 l/m 0 min 0 min 0,0 UV-I 65 W/m 10,3 km/h (2 Bft)
19.02.2014 13:38 9,1 C 8,3 C 84 % 1012,6 hPa 0,0 l/m 0 min 0 min 0,0 UV-I 47 W/m 0,0 km/h (0 Bft)
19.02.2014 13:40 9,1 C 8,3 C 85 % 1012,7 hPa 0,0 l/m 0 min 0 min 0,0 UV-I 33 W/m 15,4 km/h (3 Bft)
19.02.2014 13:42 8,9 C 7,8 C 85 % 1012,7 hPa 0,0 l/m 0 min 0 min 0,0 UV-I 39 W/m 15,4 km/h (3 Bft)
19.02.2014 13:44 8,8 C 7,8 C 85 % 1012,6 hPa 0,0 l/m 0 min 0 min 0,0 UV-I 58 W/m 15,4 km/h (3 Bft)
19.02.2014 13:46 8,8 C 7,8 C 85 % 1012,6 hPa 0,0 l/m 0 min 0 min 0,0 UV-I 127 W/m 7,7 km/h (2 Bft)
19.02.2014 13:48 8,9 C 8,3 C 86 % 1012,5 hPa 0,0 l/m 2 min 0 min 0,5 UV-I 529 W/m 12,9 km/h (3 Bft)
19.02.2014 13:50 9,1 C 8,9 C 86 % 1012,5 hPa 0,0 l/m 2 min 0 min 0,5 UV-I 441 W/m 18,0 km/h (3 Bft)
19.02.2014 13:52 9,3 C 8,9 C 86 % 1012,5 hPa 0,0 l/m 2 min 0 min 0,5 UV-I 420 W/m 12,9 km/h (3 Bft)
19.02.2014 13:54 9,4 C 8,9 C 85 % 1012,4 hPa 0,0 l/m 2 min 0 min 0,0 UV-I 281 W/m 18,0 km/h (3 Bft)
19.02.2014 13:56 9,5 C 8,9 C 85 % 1012,5 hPa 0,0 l/m 2 min 0 min 0,0 UV-I 262 W/m 10,3 km/h (2 Bft)
19.02.2014 13:58 9,6 C 8,9 C 85 % 1012,4 hPa 0,0 l/m 2 min 0 min 0,5 UV-I 380 W/m 7,7 km/h (2 Bft)
19.02.2014 14:00 9,7 C 8,9 C 85 % 1012,4 hPa 0,0 l/m 2 min 0 min 0,5 UV-I 373 W/m 12,9 km/h (3 Bft)
19.02.2014 14:02 9,8 C 8,9 C 84 % 1012,4 hPa 0,0 l/m 2 min 0 min 0,5 UV-I 366 W/m 5,1 km/h (1 Bft)
19.02.2014 14:04 9,9 C 8,9 C 84 % 1012,4 hPa 0,0 l/m 2 min 0 min 0,0 UV-I 360 W/m 10,3 km/h (2 Bft)
19.02.2014 14:06 10,0 C 8,9 C 83 % 1012,4 hPa 0,0 l/m 2 min 0 min 0,0 UV-I 381 W/m 10,3 km/h (2 Bft)
19.02.2014 14:08 10,0 C 8,9 C 83 % 1012,4 hPa 0,0 l/m 2 min 0 min 0,0 UV-I 390 W/m 12,9 km/h (3 Bft)
19.02.2014 14:10 9,9 C 8,9 C 82 % 1012,4 hPa 0,0 l/m 0 min 0 min 0,0 UV-I 181 W/m 23,2 km/h (4 Bft)
19.02.2014 14:12 9,7 C 8,9 C 82 % 1012,4 hPa 0,0 l/m 0 min 0 min 0,0 UV-I 171 W/m 18,0 km/h (3 Bft)
19.02.2014 14:14 9,6 C 8,9 C 82 % 1012,4 hPa 0,0 l/m 0 min 0 min 0,0 UV-I 172 W/m 10,3 km/h (2 Bft)
19.02.2014 14:16 9,5 C 8,9 C 83 % 1012,4 hPa 0,0 l/m 2 min 0 min 0,0 UV-I 403 W/m 25,7 km/h (4 Bft)
19.02.2014 14:18 9,5 C 8,9 C 83 % 1012,4 hPa 0,0 l/m 2 min 0 min 0,0 UV-I 392 W/m 10,3 km/h (2 Bft)
19.02.2014 14:20 9,6 C 8,9 C 83 % 1012,4 hPa 0,0 l/m 2 min 0 min 0,0 UV-I 439 W/m 10,3 km/h (2 Bft)
19.02.2014 14:22 9,6 C 8,9 C 82 % 1012,4 hPa 0,0 l/m 2 min 0 min 0,0 UV-I 251 W/m 18,0 km/h (3 Bft)
19.02.2014 14:24 9,7 C 9,4 C 82 % 1012,4 hPa 0,0 l/m 2 min 0 min 0,0 UV-I 251 W/m 15,4 km/h (3 Bft)
19.02.2014 14:26 9,7 C 8,9 C 81 % 1012,3 hPa 0,0 l/m 2 min 0 min 0,0 UV-I 403 W/m 10,3 km/h (2 Bft)
19.02.2014 14:28 9,8 C 9,4 C 82 % 1012,4 hPa 0,0 l/m 2 min 0 min 0,0 UV-I 323 W/m 7,7 km/h (2 Bft)
19.02.2014 14:30 9,7 C 8,9 C 81 % 1012,4 hPa 0,0 l/m 0 min 0 min 0,0 UV-I 153 W/m 18,0 km/h (3 Bft)
19.02.2014 14:32 9,6 C 8,9 C 81 % 1012,4 hPa 0,0 l/m 0 min 0 min 0,0 UV-I 186 W/m 10,3 km/h (2 Bft)
19.02.2014 14:34 9,4 C 8,9 C 81 % 1012,3 hPa 0,0 l/m 0 min 0 min 0,0 UV-I 171 W/m 12,9 km/h (3 Bft)
19.02.2014 14:36 9,4 C 8,9 C 82 % 1012,4 hPa 0,0 l/m 2 min 0 min 0,0 UV-I 278 W/m 12,9 km/h (3 Bft)
19.02.2014 14:38 9,3 C 8,9 C 82 % 1012,4 hPa 0,0 l/m 0 min 0 min 0,0 UV-I 204 W/m 15,4 km/h (3 Bft)
19.02.2014 14:40 9,3 C 8,9 C 82 % 1012,4 hPa 0,0 l/m 0 min 0 min 0,0 UV-I 171 W/m 12,9 km/h (3 Bft)
19.02.2014 14:42 9,3 C 8,9 C 82 % 1012,3 hPa 0,0 l/m 0 min 0 min 0,0 UV-I 121 W/m 12,9 km/h (3 Bft)
19.02.2014 14:44 9,3 C 8,9 C 82 % 1012,4 hPa 0,0 l/m 0 min 0 min 0,0 UV-I 155 W/m 7,7 km/h (2 Bft)
19.02.2014 14:46 9,3 C 8,9 C 82 % 1012,4 hPa 0,0 l/m 0 min 0 min 0,0 UV-I 165 W/m 15,4 km/h (3 Bft)
19.02.2014 14:48 9,3 C 8,9 C 82 % 1012,4 hPa 0,0 l/m 0 min 0 min 0,0 UV-I 165 W/m 15,4 km/h (3 Bft)
19.02.2014 14:50 9,3 C 8,9 C 82 % 1012,4 hPa 0,0 l/m 0 min 0 min 0,0 UV-I 165 W/m 12,9 km/h (3 Bft)
19.02.2014 14:52 9,4 C 8,9 C 83 % 1012,3 hPa 0,0 l/m 0 min 0 min 0,0 UV-I 135 W/m 10,3 km/h (2 Bft)
19.02.2014 14:54 9,3 C 8,9 C 82 % 1012,4 hPa 0,0 l/m 0 min 0 min 0,0 UV-I 204 W/m 18,0 km/h (3 Bft)
19.02.2014 14:56 9,3 C 8,3 C 82 % 1012,4 hPa 0,0 l/m 0 min 0 min 0,0 UV-I 139 W/m 18,0 km/h (3 Bft)
19.02.2014 14:58 9,3 C 8,3 C 82 % 1012,3 hPa 0,0 l/m 2 min 0 min 0,0 UV-I 225 W/m 15,4 km/h (3 Bft)
19.02.2014 15:00 9,4 C 8,3 C 83 % 1012,3 hPa 0,0 l/m 2 min 0 min 0,0 UV-I 218 W/m 12,9 km/h (3 Bft)
19.02.2014 15:02 9,4 C 8,3 C 82 % 1012,4 hPa 0,0 l/m 2 min 0 min 0,0 UV-I 214 W/m 18,0 km/h (3 Bft)
19.02.2014 15:04 9,4 C 8,3 C 82 % 1012,4 hPa 0,0 l/m 2 min 0 min 0,0 UV-I 225 W/m 7,7 km/h (2 Bft)
19.02.2014 15:06 9,5 C 8,3 C 81 % 1012,4 hPa 0,0 l/m 2 min 0 min 0,0 UV-I 232 W/m 12,9 km/h (3 Bft)
19.02.2014 15:08 9,6 C 8,3 C 81 % 1012,4 hPa 0,0 l/m 2 min 0 min 0,0 UV-I 232 W/m 7,7 km/h (2 Bft)
19.02.2014 15:10 9,6 C 8,3 C 81 % 1012,4 hPa 0,0 l/m 2 min 0 min 0,0 UV-I 234 W/m 7,7 km/h (2 Bft)
19.02.2014 15:12 9,7 C 8,3 C 81 % 1012,4 hPa 0,0 l/m 2 min 0 min 0,0 UV-I 225 W/m 10,3 km/h (2 Bft)
19.02.2014 15:14 9,7 C 8,3 C 81 % 1012,4 hPa 0,0 l/m 2 min 0 min 0,0 UV-I 234 W/m 5,1 km/h (1 Bft)
19.02.2014 15:16 9,7 C 8,9 C 81 % 1012,4 hPa 0,0 l/m 2 min 0 min 0,0 UV-I 206 W/m 0,0 km/h (0 Bft)
19.02.2014 15:18 9,8 C 8,9 C 81 % 1012,3 hPa 0,0 l/m 2 min 0 min 0,0 UV-I 202 W/m 10,3 km/h (2 Bft)
19.02.2014 15:20 9,8 C 8,9 C 81 % 1012,4 hPa 0,0 l/m 2 min 0 min 0,0 UV-I 206 W/m 7,7 km/h (2 Bft)
19.02.2014 15:22 9,7 C 8,9 C 81 % 1012,4 hPa 0,0 l/m 2 min 0 min 0,0 UV-I 190 W/m 10,3 km/h (2 Bft)
19.02.2014 15:24 9,7 C 8,9 C 80 % 1012,4 hPa 0,0 l/m 2 min 0 min 0,0 UV-I 213 W/m 10,3 km/h (2 Bft)
19.02.2014 15:26 9,7 C 8,3 C 80 % 1012,4 hPa 0,0 l/m 2 min 0 min 0,0 UV-I 223 W/m 7,7 km/h (2 Bft)
19.02.2014 15:28 9,7 C 8,9 C 81 % 1012,4 hPa 0,0 l/m 2 min 0 min 0,0 UV-I 199 W/m 10,3 km/h (2 Bft)
19.02.2014 15:30 9,7 C 8,9 C 80 % 1012,5 hPa 0,0 l/m 2 min 0 min 0,0 UV-I 206 W/m 15,4 km/h (3 Bft)
19.02.2014 15:32 9,7 C 8,9 C 81 % 1012,4 hPa 0,0 l/m 2 min 0 min 0,0 UV-I 183 W/m 7,7 km/h (2 Bft)
19.02.2014 15:34 9,7 C 8,9 C 81 % 1012,5 hPa 0,0 l/m 0 min 0 min 0,0 UV-I 86 W/m 10,3 km/h (2 Bft)
19.02.2014 15:36 9,7 C 8,3 C 81 % 1012,5 hPa 0,0 l/m 0 min 0 min 0,0 UV-I 77 W/m 12,9 km/h (3 Bft)
19.02.2014 15:38 9,6 C 8,3 C 81 % 1012,5 hPa 0,0 l/m 0 min 0 min 0,0 UV-I 65 W/m 12,9 km/h (3 Bft)
19.02.2014 15:40 9,5 C 8,3 C 81 % 1012,5 hPa 0,0 l/m 0 min 0 min 0,0 UV-I 60 W/m 0,0 km/h (0 Bft)
19.02.2014 15:42 9,4 C 8,3 C 82 % 1012,5 hPa 0,0 l/m 0 min 0 min 0,0 UV-I 65 W/m 7,7 km/h (2 Bft)
19.02.2014 15:44 9,4 C 8,3 C 82 % 1012,5 hPa 0,0 l/m 0 min 0 min 0,0 UV-I 63 W/m 5,1 km/h (1 Bft)
19.02.2014 15:46 9,4 C 8,3 C 82 % 1012,5 hPa 0,0 l/m 0 min 0 min 0,0 UV-I 58 W/m 0,0 km/h (0 Bft)
19.02.2014 15:48 9,3 C 8,3 C 82 % 1012,5 hPa 0,0 l/m 0 min 0 min 0,0 UV-I 54 W/m 2,6 km/h (1 Bft)
19.02.2014 15:50 9,3 C 8,3 C 82 % 1012,5 hPa 0,0 l/m 0 min 0 min 0,0 UV-I 46 W/m 10,3 km/h (2 Bft)
19.02.2014 15:52 9,3 C 8,3 C 83 % 1012,5 hPa 0,0 l/m 0 min 0 min 0,0 UV-I 42 W/m 0,0 km/h (0 Bft)
19.02.2014 15:54 9,3 C 8,3 C 83 % 1012,6 hPa 0,0 l/m 0 min 0 min 0,0 UV-I 47 W/m 0,0 km/h (0 Bft)
19.02.2014 15:56 9,2 C 8,3 C 83 % 1012,5 hPa 0,0 l/m 0 min 0 min 0,0 UV-I 54 W/m 0,0 km/h (0 Bft)
19.02.2014 15:58 9,2 C 8,3 C 83 % 1012,6 hPa 0,0 l/m 0 min 0 min 0,0 UV-I 54 W/m 0,0 km/h (0 Bft)
19.02.2014 16:00 9,2 C 8,3 C 83 % 1012,6 hPa 0,0 l/m 0 min 0 min 0,0 UV-I 47 W/m 2,6 km/h (1 Bft)
19.02.2014 16:02 9,2 C 8,3 C 83 % 1012,6 hPa 0,0 l/m 0 min 0 min 0,0 UV-I 42 W/m 0,0 km/h (0 Bft)
19.02.2014 16:06 9,2 C 8,3 C 83 % 1012,6 hPa 0,0 l/m 0 min 0 min 0,0 UV-I 60 W/m 0,0 km/h (0 Bft)
19.02.2014 16:08 9,2 C 8,3 C 83 % 1012,6 hPa 0,0 l/m 0 min 0 min 0,0 UV-I 70 W/m 5,1 km/h (1 Bft)
19.02.2014 16:10 9,3 C 8,3 C 83 % 1012,6 hPa 0,0 l/m 0 min 0 min 0,0 UV-I 77 W/m 10,3 km/h (2 Bft)
19.02.2014 16:12 9,3 C 8,3 C 83 % 1012,6 hPa 0,0 l/m 0 min 0 min 0,0 UV-I 77 W/m 5,1 km/h (1 Bft)
19.02.2014 16:14 9,3 C 8,3 C 83 % 1012,6 hPa 0,0 l/m 0 min 0 min 0,0 UV-I 86 W/m 0,0 km/h (0 Bft)
19.02.2014 16:16 9,4 C 8,9 C 83 % 1012,6 hPa 0,0 l/m 2 min 0 min 0,0 UV-I 234 W/m 5,1 km/h (1 Bft)
19.02.2014 16:18 9,5 C 8,9 C 83 % 1012,6 hPa 0,0 l/m 2 min 0 min 0,0 UV-I 183 W/m 7,7 km/h (2 Bft)
19.02.2014 16:20 9,6 C 8,9 C 83 % 1012,5 hPa 0,0 l/m 0 min 0 min 0,0 UV-I 120 W/m 12,9 km/h (3 Bft)
19.02.2014 16:22 9,7 C 8,9 C 82 % 1012,6 hPa 0,0 l/m 2 min 0 min 0,0 UV-I 125 W/m 7,7 km/h (2 Bft)
19.02.2014 16:24 9,7 C 8,9 C 81 % 1012,6 hPa 0,0 l/m 2 min 0 min 0,0 UV-I 162 W/m 12,9 km/h (3 Bft)
19.02.2014 16:26 9,7 C 8,9 C 80 % 1012,7 hPa 0,0 l/m 2 min 0 min 0,0 UV-I 156 W/m 15,4 km/h (3 Bft)
19.02.2014 16:28 9,7 C 8,9 C 79 % 1012,6 hPa 0,0 l/m 2 min 0 min 0,0 UV-I 127 W/m 15,4 km/h (3 Bft)
19.02.2014 16:30 9,7 C 8,9 C 79 % 1012,5 hPa 0,0 l/m 0 min 0 min 0,0 UV-I 105 W/m 2,6 km/h (1 Bft)
19.02.2014 16:32 9,7 C 8,9 C 79 % 1012,6 hPa 0,0 l/m 0 min 0 min 0,0 UV-I 93 W/m 10,3 km/h (2 Bft)
19.02.2014 16:34 9,7 C 8,9 C 80 % 1012,5 hPa 0,0 l/m 0 min 0 min 0,0 UV-I 84 W/m 7,7 km/h (2 Bft)
19.02.2014 16:36 9,6 C 8,9 C 80 % 1012,5 hPa 0,0 l/m 0 min 0 min 0,0 UV-I 84 W/m 12,9 km/h (3 Bft)
19.02.2014 16:38 9,6 C 8,9 C 80 % 1012,6 hPa 0,0 l/m 0 min 0 min 0,0 UV-I 83 W/m 7,7 km/h (2 Bft)
19.02.2014 16:40 9,5 C 8,3 C 80 % 1012,6 hPa 0,0 l/m 0 min 0 min 0,0 UV-I 79 W/m 15,4 km/h (3 Bft)
19.02.2014 16:42 9,5 C 8,3 C 80 % 1012,5 hPa 0,0 l/m 0 min 0 min 0,0 UV-I 70 W/m 7,7 km/h (2 Bft)
19.02.2014 16:44 9,4 C 8,3 C 80 % 1012,6 hPa 0,0 l/m 0 min 0 min 0,0 UV-I 72 W/m 10,3 km/h (2 Bft)
19.02.2014 16:46 9,4 C 8,3 C 81 % 1012,6 hPa 0,0 l/m 0 min 0 min 0,0 UV-I 67 W/m 10,3 km/h (2 Bft)
19.02.2014 16:48 9,4 C 8,3 C 81 % 1012,6 hPa 0,0 l/m 0 min 0 min 0,0 UV-I 62 W/m 0,0 km/h (0 Bft)
19.02.2014 16:50 9,4 C 8,3 C 81 % 1012,7 hPa 0,0 l/m 0 min 0 min 0,0 UV-I 60 W/m 0,0 km/h (0 Bft)
19.02.2014 16:52 9,4 C 8,3 C 81 % 1012,7 hPa 0,0 l/m 0 min 0 min 0,0 UV-I 58 W/m 0,0 km/h (0 Bft)
19.02.2014 16:54 9,3 C 8,3 C 82 % 1012,7 hPa 0,0 l/m 0 min 0 min 0,0 UV-I 46 W/m 10,3 km/h (2 Bft)
19.02.2014 16:56 9,3 C 8,3 C 82 % 1012,6 hPa 0,0 l/m 0 min 0 min 0,0 UV-I 44 W/m 0,0 km/h (0 Bft)
19.02.2014 16:58 9,3 C 8,3 C 81 % 1012,6 hPa 0,0 l/m 0 min 0 min 0,0 UV-I 44 W/m 0,0 km/h (0 Bft)
19.02.2014 17:00 9,3 C 7,8 C 81 % 1012,7 hPa 0,0 l/m 0 min 0 min 0,0 UV-I 51 W/m 7,7 km/h (2 Bft)
19.02.2014 17:02 9,2 C 7,8 C 81 % 1012,6 hPa 0,0 l/m 0 min 0 min 0,0 UV-I 56 W/m 10,3 km/h (2 Bft)
19.02.2014 17:06 9,2 C 7,8 C 81 % 1012,6 hPa 0,0 l/m 0 min 0 min 0,0 UV-I 47 W/m 5,1 km/h (1 Bft)
19.02.2014 17:08 9,1 C 7,8 C 81 % 1012,7 hPa 0,0 l/m 0 min 0 min 0,0 UV-I 49 W/m 12,9 km/h (3 Bft)
19.02.2014 17:10 9,1 C 7,8 C 82 % 1012,7 hPa 0,0 l/m 0 min 0 min 0,0 UV-I 53 W/m 2,6 km/h (1 Bft)
19.02.2014 17:12 9,1 C 7,8 C 82 % 1012,7 hPa 0,0 l/m 0 min 0 min 0,0 UV-I 44 W/m 5,1 km/h (1 Bft)
19.02.2014 17:14 9,1 C 7,8 C 82 % 1012,8 hPa 0,0 l/m 0 min 0 min 0,0 UV-I 39 W/m 2,6 km/h (1 Bft)
19.02.2014 17:16 9,1 C 7,8 C 82 % 1012,8 hPa 0,0 l/m 0 min 0 min 0,0 UV-I 32 W/m 7,7 km/h (2 Bft)
19.02.2014 17:18 9,1 C 7,8 C 82 % 1012,7 hPa 0,0 l/m 0 min 0 min 0,0 UV-I 26 W/m 5,1 km/h (1 Bft)
19.02.2014 17:20 9,0 C 7,8 C 82 % 1012,8 hPa 0,0 l/m 0 min 0 min 0,0 UV-I 23 W/m 5,1 km/h (1 Bft)
19.02.2014 17:22 9,0 C 7,8 C 82 % 1012,8 hPa 0,0 l/m 0 min 0 min 0,0 UV-I 19 W/m 0,0 km/h (0 Bft)
19.02.2014 17:24 8,9 C 7,8 C 82 % 1012,7 hPa 0,0 l/m 0 min 0 min 0,0 UV-I 16 W/m 0,0 km/h (0 Bft)
19.02.2014 17:26 8,9 C 7,8 C 82 % 1012,8 hPa 0,0 l/m 0 min 0 min 0,0 UV-I 14 W/m 7,7 km/h (2 Bft)
19.02.2014 17:28 8,9 C 7,2 C 82 % 1012,9 hPa 0,0 l/m 0 min 0 min 0,0 UV-I 11 W/m 5,1 km/h (1 Bft)
19.02.2014 17:30 8,9 C 7,2 C 82 % 1012,9 hPa 0,0 l/m 0 min 0 min 0,0 UV-I 9 W/m 12,9 km/h (3 Bft)
19.02.2014 17:32 8,9 C 7,2 C 82 % 1012,9 hPa 0,0 l/m 0 min 0 min 0,0 UV-I 7 W/m 7,7 km/h (2 Bft)
19.02.2014 17:34 8,9 C 7,2 C 82 % 1013,0 hPa 0,0 l/m 0 min 0 min 0,0 UV-I 7 W/m 0,0 km/h (0 Bft)
19.02.2014 17:36 8,9 C 7,2 C 82 % 1013,0 hPa 0,0 l/m 0 min 0 min 0,0 UV-I 5 W/m 0,0 km/h (0 Bft)
19.02.2014 17:38 8,8 C 7,2 C 83 % 1013,1 hPa 0,0 l/m 0 min 0 min 0,0 UV-I 0 W/m 0,0 km/h (0 Bft)
19.02.2014 17:40 8,8 C 7,2 C 83 % 1013,1 hPa 0,0 l/m 0 min 0 min 0,0 UV-I 0 W/m 0,0 km/h (0 Bft)
19.02.2014 17:42 8,8 C 7,2 C 83 % 1013,0 hPa 0,0 l/m 0 min 0 min 0,0 UV-I 0 W/m 0,0 km/h (0 Bft)
19.02.2014 17:44 8,8 C 7,2 C 83 % 1013,0 hPa 0,0 l/m 0 min 0 min 0,0 UV-I 0 W/m 0,0 km/h (0 Bft)
19.02.2014 17:46 8,7 C 7,2 C 83 % 1013,1 hPa 0,0 l/m 0 min 0 min 0,0 UV-I 0 W/m 0,0 km/h (0 Bft)
19.02.2014 17:48 8,7 C 7,2 C 83 % 1013,1 hPa 0,0 l/m 0 min 0 min 0,0 UV-I 0 W/m 0,0 km/h (0 Bft)
19.02.2014 17:50 8,7 C 7,2 C 83 % 1013,2 hPa 0,0 l/m 0 min 0 min 0,0 UV-I 0 W/m 0,0 km/h (0 Bft)
19.02.2014 17:52 8,7 C 7,2 C 83 % 1013,1 hPa 0,0 l/m 0 min 0 min 0,0 UV-I 0 W/m 0,0 km/h (0 Bft)
19.02.2014 17:54 8,7 C 7,2 C 83 % 1013,1 hPa 0,0 l/m 0 min 0 min 0,0 UV-I 0 W/m 0,0 km/h (0 Bft)
19.02.2014 17:56 8,6 C 7,2 C 84 % 1013,2 hPa 0,0 l/m 0 min 0 min 0,0 UV-I 0 W/m 0,0 km/h (0 Bft)
19.02.2014 17:58 8,6 C 7,2 C 84 % 1013,2 hPa 0,0 l/m 0 min 0 min 0,0 UV-I 0 W/m 0,0 km/h (0 Bft)
19.02.2014 18:00 8,6 C 7,2 C 84 % 1013,2 hPa 0,0 l/m 0 min 0 min 0,0 UV-I 0 W/m 0,0 km/h (0 Bft)
19.02.2014 18:02 8,6 C 6,7 C 84 % 1013,2 hPa 0,0 l/m 0 min 0 min 0,0 UV-I 0 W/m 0,0 km/h (0 Bft)
19.02.2014 18:06 8,5 C 6,7 C 84 % 1013,2 hPa 0,0 l/m 0 min 0 min 0,0 UV-I 0 W/m 0,0 km/h (0 Bft)
19.02.2014 18:08 8,5 C 6,7 C 84 % 1013,3 hPa 0,0 l/m 0 min 0 min 0,0 UV-I 0 W/m 0,0 km/h (0 Bft)
19.02.2014 18:10 8,5 C 6,7 C 84 % 1013,3 hPa 0,0 l/m 0 min 2 min 0,0 UV-I 0 W/m 0,0 km/h (0 Bft)
19.02.2014 18:12 8,6 C 6,7 C 84 % 1013,3 hPa 0,0 l/m 0 min 2 min 0,0 UV-I 0 W/m 0,0 km/h (0 Bft)
19.02.2014 18:14 8,6 C 6,7 C 84 % 1013,3 hPa 0,0 l/m 0 min 2 min 0,0 UV-I 0 W/m 0,0 km/h (0 Bft)
19.02.2014 18:16 8,6 C 6,7 C 84 % 1013,3 hPa 0,0 l/m 0 min 2 min 0,0 UV-I 0 W/m 0,0 km/h (0 Bft)
19.02.2014 18:18 8,6 C 6,7 C 85 % 1013,3 hPa 0,0 l/m 0 min 2 min 0,0 UV-I 0 W/m 0,0 km/h (0 Bft)
19.02.2014 18:20 8,5 C 6,7 C 85 % 1013,4 hPa 0,0 l/m 0 min 2 min 0,0 UV-I 0 W/m 0,0 km/h (0 Bft)
19.02.2014 18:22 8,5 C 6,1 C 85 % 1013,3 hPa 0,0 l/m 0 min 0 min 0,0 UV-I 0 W/m 0,0 km/h (0 Bft)
19.02.2014 18:24 8,4 C 6,1 C 85 % 1013,5 hPa 0,0 l/m 0 min 2 min 0,0 UV-I 0 W/m 0,0 km/h (0 Bft)
19.02.2014 18:26 8,4 C 6,1 C 86 % 1013,5 hPa 0,0 l/m 0 min 2 min 0,0 UV-I 0 W/m 0,0 km/h (0 Bft)
19.02.2014 18:28 8,4 C 6,1 C 86 % 1013,5 hPa 0,0 l/m 0 min 0 min 0,0 UV-I 0 W/m 0,0 km/h (0 Bft)
19.02.2014 18:30 8,3 C 6,1 C 86 % 1013,5 hPa 0,0 l/m 0 min 0 min 0,0 UV-I 0 W/m 0,0 km/h (0 Bft)
19.02.2014 18:32 8,3 C 6,1 C 86 % 1013,5 hPa 0,0 l/m 0 min 0 min 0,0 UV-I 0 W/m 0,0 km/h (0 Bft)
19.02.2014 18:34 8,3 C 6,1 C 87 % 1013,5 hPa 0,0 l/m 0 min 0 min 0,0 UV-I 0 W/m 0,0 km/h (0 Bft)
19.02.2014 18:36 8,2 C 6,1 C 87 % 1013,5 hPa 0,0 l/m 0 min 0 min 0,0 UV-I 0 W/m 0,0 km/h (0 Bft)
19.02.2014 18:38 8,2 C 6,1 C 87 % 1013,6 hPa 0,0 l/m 0 min 0 min 0,0 UV-I 0 W/m 0,0 km/h (0 Bft)
19.02.2014 18:40 8,2 C 6,1 C 87 % 1013,6 hPa 0,0 l/m 0 min 0 min 0,0 UV-I 0 W/m 0,0 km/h (0 Bft)
19.02.2014 18:42 8,2 C 6,1 C 87 % 1013,6 hPa 0,0 l/m 0 min 0 min 0,0 UV-I 0 W/m 0,0 km/h (0 Bft)
19.02.2014 18:44 8,2 C 6,1 C 87 % 1013,6 hPa 0,0 l/m 0 min 0 min 0,0 UV-I 0 W/m 0,0 km/h (0 Bft)
19.02.2014 18:46 8,2 C 6,1 C 87 % 1013,6 hPa 0,0 l/m 0 min 0 min 0,0 UV-I 0 W/m 0,0 km/h (0 Bft)
19.02.2014 18:48 8,1 C 6,1 C 87 % 1013,6 hPa 0,0 l/m 0 min 0 min 0,0 UV-I 0 W/m 0,0 km/h (0 Bft)
19.02.2014 18:50 8,1 C 6,1 C 87 % 1013,6 hPa 0,0 l/m 0 min 0 min 0,0 UV-I 0 W/m 0,0 km/h (0 Bft)
19.02.2014 18:52 8,1 C 6,1 C 87 % 1013,6 hPa 0,0 l/m 0 min 0 min 0,0 UV-I 0 W/m 0,0 km/h (0 Bft)
19.02.2014 18:54 8,1 C 5,6 C 87 % 1013,6 hPa 0,0 l/m 0 min 0 min 0,0 UV-I 0 W/m 0,0 km/h (0 Bft)
19.02.2014 18:56 8,1 C 5,6 C 87 % 1013,7 hPa 0,0 l/m 0 min 0 min 0,0 UV-I 0 W/m 0,0 km/h (0 Bft)
19.02.2014 18:58 8,1 C 5,6 C 87 % 1013,7 hPa 0,0 l/m 0 min 0 min 0,0 UV-I 0 W/m 0,0 km/h (0 Bft)
19.02.2014 19:00 8,1 C 5,6 C 87 % 1013,7 hPa 0,0 l/m 0 min 0 min 0,0 UV-I 0 W/m 0,0 km/h (0 Bft)
19.02.2014 19:02 8,0 C 5,6 C 87 % 1013,7 hPa 0,0 l/m 0 min 0 min 0,0 UV-I 0 W/m 0,0 km/h (0 Bft)
19.02.2014 19:04 8,0 C 5,6 C 87 % 1013,6 hPa 0,0 l/m 0 min 0 min 0,0 UV-I 0 W/m 0,0 km/h (0 Bft)
19.02.2014 19:06 8,0 C 5,6 C 87 % 1013,7 hPa 0,0 l/m 0 min 0 min 0,0 UV-I 0 W/m 0,0 km/h (0 Bft)
19.02.2014 19:08 7,9 C 5,6 C 87 % 1013,7 hPa 0,0 l/m 0 min 0 min 0,0 UV-I 0 W/m 0,0 km/h (0 Bft)
19.02.2014 19:10 8,0 C 5,6 C 87 % 1013,7 hPa 0,0 l/m 0 min 0 min 0,0 UV-I 0 W/m 0,0 km/h (0 Bft)
19.02.2014 19:12 8,0 C 5,6 C 87 % 1013,7 hPa 0,0 l/m 0 min 0 min 0,0 UV-I 0 W/m 0,0 km/h (0 Bft)
19.02.2014 19:14 8,0 C 5,6 C 87 % 1013,7 hPa 0,0 l/m 0 min 0 min 0,0 UV-I 0 W/m 0,0 km/h (0 Bft)
19.02.2014 19:16 7,9 C 5,6 C 87 % 1013,7 hPa 0,0 l/m 0 min 0 min 0,0 UV-I 0 W/m 0,0 km/h (0 Bft)
19.02.2014 19:18 7,9 C 5,6 C 87 % 1013,7 hPa 0,0 l/m 0 min 0 min 0,0 UV-I 0 W/m 0,0 km/h (0 Bft)
19.02.2014 19:20 7,9 C 5,6 C 87 % 1013,8 hPa 0,0 l/m 0 min 0 min 0,0 UV-I 0 W/m 0,0 km/h (0 Bft)
19.02.2014 19:22 7,9 C 6,1 C 87 % 1013,7 hPa 0,0 l/m 0 min 0 min 0,0 UV-I 0 W/m 0,0 km/h (0 Bft)
19.02.2014 19:24 7,8 C 6,1 C 88 % 1013,8 hPa 0,0 l/m 0 min 0 min 0,0 UV-I 0 W/m 0,0 km/h (0 Bft)
19.02.2014 19:26 7,9 C 6,1 C 87 % 1013,8 hPa 0,0 l/m 0 min 0 min 0,0 UV-I 0 W/m 0,0 km/h (0 Bft)
19.02.2014 19:28 7,8 C 6,1 C 87 % 1013,8 hPa 0,0 l/m 0 min 0 min 0,0 UV-I 0 W/m 0,0 km/h (0 Bft)
19.02.2014 19:30 7,8 C 6,1 C 87 % 1013,9 hPa 0,0 l/m 0 min 0 min 0,0 UV-I 0 W/m 0,0 km/h (0 Bft)
19.02.2014 19:32 7,8 C 6,1 C 87 % 1013,8 hPa 0,0 l/m 0 min 0 min 0,0 UV-I 0 W/m 0,0 km/h (0 Bft)
19.02.2014 19:34 7,9 C 6,1 C 87 % 1013,9 hPa 0,0 l/m 0 min 0 min 0,0 UV-I 0 W/m 0,0 km/h (0 Bft)
19.02.2014 19:36 7,9 C 6,1 C 87 % 1013,8 hPa 0,0 l/m 0 min 0 min 0,0 UV-I 0 W/m 0,0 km/h (0 Bft)
19.02.2014 19:38 7,8 C 6,1 C 87 % 1013,8 hPa 0,0 l/m 0 min 0 min 0,0 UV-I 0 W/m 0,0 km/h (0 Bft)
19.02.2014 19:40 7,8 C 6,1 C 87 % 1013,8 hPa 0,0 l/m 0 min 0 min 0,0 UV-I 0 W/m 0,0 km/h (0 Bft)
19.02.2014 19:42 7,8 C 6,1 C 87 % 1013,8 hPa 0,0 l/m 0 min 0 min 0,0 UV-I 0 W/m 0,0 km/h (0 Bft)
19.02.2014 19:44 7,8 C 6,1 C 87 % 1013,8 hPa 0,0 l/m 0 min 0 min 0,0 UV-I 0 W/m 0,0 km/h (0 Bft)
19.02.2014 19:46 7,9 C 6,1 C 87 % 1013,9 hPa 0,0 l/m 0 min 0 min 0,0 UV-I 0 W/m 0,0 km/h (0 Bft)
19.02.2014 19:48 7,9 C 6,1 C 87 % 1013,9 hPa 0,0 l/m 0 min 0 min 0,0 UV-I 0 W/m 0,0 km/h (0 Bft)
19.02.2014 19:50 7,8 C 6,1 C 87 % 1013,8 hPa 0,0 l/m 0 min 0 min 0,0 UV-I 0 W/m 0,0 km/h (0 Bft)
19.02.2014 19:52 7,8 C 6,1 C 87 % 1013,8 hPa 0,0 l/m 0 min 0 min 0,0 UV-I 0 W/m 0,0 km/h (0 Bft)
19.02.2014 19:54 7,8 C 6,1 C 87 % 1013,8 hPa 0,0 l/m 0 min 0 min 0,0 UV-I 0 W/m 0,0 km/h (0 Bft)
19.02.2014 19:56 7,8 C 6,1 C 86 % 1013,8 hPa 0,0 l/m 0 min 0 min 0,0 UV-I 0 W/m 0,0 km/h (0 Bft)
19.02.2014 19:58 7,8 C 6,1 C 86 % 1013,9 hPa 0,0 l/m 0 min 0 min 0,0 UV-I 0 W/m 0,0 km/h (0 Bft)
19.02.2014 20:00 7,8 C 6,1 C 87 % 1013,8 hPa 0,0 l/m 0 min 0 min 0,0 UV-I 0 W/m 0,0 km/h (0 Bft)
19.02.2014 20:02 7,8 C 6,1 C 87 % 1013,8 hPa 0,0 l/m 0 min 0 min 0,0 UV-I 0 W/m 0,0 km/h (0 Bft)
19.02.2014 20:06 7,8 C 6,1 C 87 % 1013,8 hPa 0,0 l/m 0 min 0 min 0,0 UV-I 0 W/m 7,7 km/h (2 Bft)
19.02.2014 20:08 7,8 C 6,1 C 86 % 1013,9 hPa 0,0 l/m 0 min 0 min 0,0 UV-I 0 W/m 0,0 km/h (0 Bft)
19.02.2014 20:10 7,8 C 6,1 C 87 % 1013,9 hPa 0,0 l/m 0 min 0 min 0,0 UV-I 0 W/m 0,0 km/h (0 Bft)
19.02.2014 20:12 7,8 C 6,1 C 87 % 1014,0 hPa 0,0 l/m 0 min 0 min 0,0 UV-I 0 W/m 0,0 km/h (0 Bft)
19.02.2014 20:14 7,8 C 6,1 C 87 % 1014,0 hPa 0,0 l/m 0 min 0 min 0,0 UV-I 0 W/m 0,0 km/h (0 Bft)
19.02.2014 20:16 7,8 C 6,1 C 86 % 1014,0 hPa 0,0 l/m 0 min 0 min 0,0 UV-I 0 W/m 0,0 km/h (0 Bft)
19.02.2014 20:18 7,8 C 6,1 C 86 % 1014,1 hPa 0,0 l/m 0 min 0 min 0,0 UV-I 0 W/m 0,0 km/h (0 Bft)
19.02.2014 20:20 7,8 C 6,1 C 86 % 1014,1 hPa 0,0 l/m 0 min 0 min 0,0 UV-I 0 W/m 0,0 km/h (0 Bft)
19.02.2014 20:22 7,8 C 6,1 C 86 % 1014,1 hPa 0,0 l/m 0 min 0 min 0,0 UV-I 0 W/m 0,0 km/h (0 Bft)
19.02.2014 20:24 7,8 C 6,1 C 86 % 1014,1 hPa 0,0 l/m 0 min 0 min 0,0 UV-I 0 W/m 0,0 km/h (0 Bft)
19.02.2014 20:26 7,8 C 6,1 C 86 % 1014,1 hPa 0,0 l/m 0 min 0 min 0,0 UV-I 0 W/m 0,0 km/h (0 Bft)
19.02.2014 20:28 7,8 C 6,1 C 86 % 1014,0 hPa 0,0 l/m 0 min 0 min 0,0 UV-I 0 W/m 0,0 km/h (0 Bft)
19.02.2014 20:30 7,8 C 6,1 C 86 % 1014,1 hPa 0,0 l/m 0 min 0 min 0,0 UV-I 0 W/m 0,0 km/h (0 Bft)
19.02.2014 20:32 7,8 C 6,1 C 86 % 1014,1 hPa 0,0 l/m 0 min 0 min 0,0 UV-I 0 W/m 0,0 km/h (0 Bft)
19.02.2014 20:34 7,8 C 6,1 C 86 % 1014,1 hPa 0,0 l/m 0 min 0 min 0,0 UV-I 0 W/m 0,0 km/h (0 Bft)
19.02.2014 20:37 7,8 C 6,1 C 86 % 1014,1 hPa 0,0 l/m 0 min 0 min 0,0 UV-I 0 W/m 0,0 km/h (0 Bft)
19.02.2014 20:38 7,8 C 6,1 C 86 % 1014,1 hPa 0,0 l/m 0 min 0 min 0,0 UV-I 0 W/m 0,0 km/h (0 Bft)
19.02.2014 20:40 7,8 C 6,1 C 86 % 1014,1 hPa 0,0 l/m 0 min 0 min 0,0 UV-I 0 W/m 0,0 km/h (0 Bft)
19.02.2014 20:42 7,8 C 6,1 C 86 % 1014,1 hPa 0,0 l/m 0 min 0 min 0,0 UV-I 0 W/m 0,0 km/h (0 Bft)
19.02.2014 20:44 7,8 C 6,1 C 86 % 1014,1 hPa 0,0 l/m 0 min 0 min 0,0 UV-I 0 W/m 0,0 km/h (0 Bft)
19.02.2014 20:46 7,8 C 6,1 C 86 % 1014,1 hPa 0,0 l/m 0 min 0 min 0,0 UV-I 0 W/m 5,1 km/h (1 Bft)
19.02.2014 20:48 7,8 C 6,1 C 86 % 1014,1 hPa 0,0 l/m 0 min 0 min 0,0 UV-I 0 W/m 5,1 km/h (1 Bft)
19.02.2014 20:50 7,8 C 6,1 C 86 % 1014,1 hPa 0,0 l/m 0 min 0 min 0,0 UV-I 0 W/m 5,1 km/h (1 Bft)
19.02.2014 20:52 7,8 C 6,1 C 86 % 1014,1 hPa 0,0 l/m 0 min 0 min 0,0 UV-I 0 W/m 0,0 km/h (0 Bft)
19.02.2014 20:54 7,8 C 6,1 C 86 % 1014,2 hPa 0,0 l/m 0 min 0 min 0,0 UV-I 0 W/m 0,0 km/h (0 Bft)
19.02.2014 20:56 7,8 C 6,1 C 86 % 1014,1 hPa 0,0 l/m 0 min 0 min 0,0 UV-I 0 W/m 0,0 km/h (0 Bft)
19.02.2014 20:58 7,8 C 6,1 C 86 % 1014,1 hPa 0,0 l/m 0 min 0 min 0,0 UV-I 0 W/m 5,1 km/h (1 Bft)
19.02.2014 21:00 7,8 C 6,1 C 86 % 1014,2 hPa 0,0 l/m 0 min 0 min 0,0 UV-I 0 W/m 0,0 km/h (0 Bft)
19.02.2014 21:02 7,8 C 6,1 C 86 % 1014,2 hPa 0,0 l/m 0 min 0 min 0,0 UV-I 0 W/m 0,0 km/h (0 Bft)
19.02.2014 21:04 7,8 C 6,1 C 86 % 1014,2 hPa 0,0 l/m 0 min 0 min 0,0 UV-I 0 W/m 2,6 km/h (1 Bft)
19.02.2014 21:06 7,8 C 6,1 C 86 % 1014,2 hPa 0,0 l/m 0 min 0 min 0,0 UV-I 0 W/m 2,6 km/h (1 Bft)
19.02.2014 21:08 7,8 C 6,1 C 86 % 1014,2 hPa 0,0 l/m 0 min 0 min 0,0 UV-I 0 W/m 0,0 km/h (0 Bft)
19.02.2014 21:10 7,7 C 6,1 C 87 % 1014,3 hPa 0,0 l/m 0 min 0 min 0,0 UV-I 0 W/m 0,0 km/h (0 Bft)
19.02.2014 21:12 7,7 C 6,1 C 87 % 1014,3 hPa 0,0 l/m 0 min 0 min 0,0 UV-I 0 W/m 0,0 km/h (0 Bft)
19.02.2014 21:14 7,7 C 6,1 C 87 % 1014,2 hPa 0,0 l/m 0 min 0 min 0,0 UV-I 0 W/m 0,0 km/h (0 Bft)
19.02.2014 21:16 7,7 C 6,1 C 87 % 1014,3 hPa 0,0 l/m 0 min 0 min 0,0 UV-I 0 W/m 0,0 km/h (0 Bft)
19.02.2014 21:18 7,7 C 6,1 C 87 % 1014,2 hPa 0,0 l/m 0 min 0 min 0,0 UV-I 0 W/m 0,0 km/h (0 Bft)
19.02.2014 21:20 7,7 C 6,1 C 87 % 1014,2 hPa 0,0 l/m 0 min 0 min 0,0 UV-I 0 W/m 0,0 km/h (0 Bft)
19.02.2014 21:22 7,7 C 6,1 C 87 % 1014,2 hPa 0,0 l/m 0 min 0 min 0,0 UV-I 0 W/m 5,1 km/h (1 Bft)
19.02.2014 21:24 7,7 C 6,1 C 87 % 1014,3 hPa 0,0 l/m 0 min 0 min 0,0 UV-I 0 W/m 0,0 km/h (0 Bft)
19.02.2014 21:26 7,7 C 6,1 C 87 % 1014,4 hPa 0,0 l/m 0 min 0 min 0,0 UV-I 0 W/m 0,0 km/h (0 Bft)
19.02.2014 21:28 7,7 C 6,1 C 87 % 1014,4 hPa 0,0 l/m 0 min 0 min 0,0 UV-I 0 W/m 2,6 km/h (1 Bft)
19.02.2014 21:30 7,7 C 6,1 C 87 % 1014,3 hPa 0,0 l/m 0 min 0 min 0,0 UV-I 0 W/m 0,0 km/h (0 Bft)
19.02.2014 21:32 7,7 C 6,1 C 87 % 1014,3 hPa 0,0 l/m 0 min 0 min 0,0 UV-I 0 W/m 0,0 km/h (0 Bft)
19.02.2014 21:34 7,7 C 6,1 C 87 % 1014,3 hPa 0,0 l/m 0 min 0 min 0,0 UV-I 0 W/m 7,7 km/h (2 Bft)
19.02.2014 21:36 7,6 C 6,1 C 87 % 1014,4 hPa 0,0 l/m 0 min 0 min 0,0 UV-I 0 W/m 2,6 km/h (1 Bft)
19.02.2014 21:38 7,6 C 6,1 C 87 % 1014,4 hPa 0,0 l/m 0 min 0 min 0,0 UV-I 0 W/m 0,0 km/h (0 Bft)
19.02.2014 21:40 7,6 C 6,1 C 87 % 1014,4 hPa 0,0 l/m 0 min 0 min 0,0 UV-I 0 W/m 5,1 km/h (1 Bft)
19.02.2014 21:42 7,6 C 6,1 C 87 % 1014,4 hPa 0,0 l/m 0 min 0 min 0,0 UV-I 0 W/m 2,6 km/h (1 Bft)
19.02.2014 21:44 7,7 C 6,1 C 87 % 1014,4 hPa 0,0 l/m 0 min 0 min 0,0 UV-I 0 W/m 7,7 km/h (2 Bft)
19.02.2014 21:46 7,7 C 6,1 C 87 % 1014,4 hPa 0,0 l/m 0 min 0 min 0,0 UV-I 0 W/m 5,1 km/h (1 Bft)
19.02.2014 21:48 7,6 C 6,1 C 88 % 1014,3 hPa 0,0 l/m 0 min 0 min 0,0 UV-I 0 W/m 0,0 km/h (0 Bft)
19.02.2014 21:50 7,6 C 6,1 C 88 % 1014,3 hPa 0,0 l/m 0 min 0 min 0,0 UV-I 0 W/m 5,1 km/h (1 Bft)
19.02.2014 21:52 7,6 C 6,1 C 88 % 1014,3 hPa 0,0 l/m 0 min 0 min 0,0 UV-I 0 W/m 5,1 km/h (1 Bft)
19.02.2014 21:54 7,7 C 6,1 C 88 % 1014,3 hPa 0,0 l/m 0 min 0 min 0,0 UV-I 0 W/m 7,7 km/h (2 Bft)
19.02.2014 21:56 7,7 C 6,1 C 88 % 1014,2 hPa 0,0 l/m 0 min 0 min 0,0 UV-I 0 W/m 2,6 km/h (1 Bft)
19.02.2014 21:58 7,6 C 6,1 C 88 % 1014,2 hPa 0,0 l/m 0 min 0 min 0,0 UV-I 0 W/m 0,0 km/h (0 Bft)
19.02.2014 22:00 7,6 C 6,1 C 88 % 1014,2 hPa 0,0 l/m 0 min 0 min 0,0 UV-I 0 W/m 5,1 km/h (1 Bft)
19.02.2014 22:02 7,6 C 6,1 C 88 % 1014,3 hPa 0,0 l/m 0 min 0 min 0,0 UV-I 0 W/m 5,1 km/h (1 Bft)
19.02.2014 22:04 7,6 C 6,1 C 88 % 1014,3 hPa 0,0 l/m 0 min 0 min 0,0 UV-I 0 W/m 5,1 km/h (1 Bft)
19.02.2014 22:06 7,6 C 6,1 C 89 % 1014,3 hPa 0,0 l/m 0 min 0 min 0,0 UV-I 0 W/m 0,0 km/h (0 Bft)
19.02.2014 22:08 7,6 C 6,1 C 89 % 1014,3 hPa 0,0 l/m 0 min 0 min 0,0 UV-I 0 W/m 0,0 km/h (0 Bft)
19.02.2014 22:10 7,6 C 6,1 C 89 % 1014,4 hPa 0,0 l/m 0 min 0 min 0,0 UV-I 0 W/m 5,1 km/h (1 Bft)
19.02.2014 22:12 7,6 C 6,1 C 89 % 1014,3 hPa 0,0 l/m 0 min 0 min 0,0 UV-I 0 W/m 0,0 km/h (0 Bft)
19.02.2014 22:14 7,6 C 6,1 C 89 % 1014,3 hPa 0,0 l/m 0 min 0 min 0,0 UV-I 0 W/m 0,0 km/h (0 Bft)
19.02.2014 22:16 7,6 C 6,1 C 89 % 1014,4 hPa 0,0 l/m 0 min 0 min 0,0 UV-I 0 W/m 0,0 km/h (0 Bft)
19.02.2014 22:18 7,6 C 6,1 C 89 % 1014,4 hPa 0,0 l/m 0 min 0 min 0,0 UV-I 0 W/m 0,0 km/h (0 Bft)
19.02.2014 22:20 7,6 C 6,1 C 89 % 1014,3 hPa 0,0 l/m 0 min 0 min 0,0 UV-I 0 W/m 7,7 km/h (2 Bft)
19.02.2014 22:22 7,6 C 6,1 C 89 % 1014,3 hPa 0,0 l/m 0 min 0 min 0,0 UV-I 0 W/m 0,0 km/h (0 Bft)
19.02.2014 22:24 7,6 C 6,1 C 89 % 1014,4 hPa 0,0 l/m 0 min 0 min 0,0 UV-I 0 W/m 5,1 km/h (1 Bft)
19.02.2014 22:26 7,6 C 6,1 C 89 % 1014,4 hPa 0,0 l/m 0 min 0 min 0,0 UV-I 0 W/m 5,1 km/h (1 Bft)
19.02.2014 22:28 7,6 C 6,1 C 89 % 1014,3 hPa 0,0 l/m 0 min 0 min 0,0 UV-I 0 W/m 0,0 km/h (0 Bft)
19.02.2014 22:30 7,6 C 6,1 C 89 % 1014,3 hPa 0,0 l/m 0 min 0 min 0,0 UV-I 0 W/m 0,0 km/h (0 Bft)
19.02.2014 22:32 7,6 C 6,1 C 89 % 1014,4 hPa 0,0 l/m 0 min 0 min 0,0 UV-I 0 W/m 2,6 km/h (1 Bft)
19.02.2014 22:34 7,6 C 6,1 C 89 % 1014,3 hPa 0,0 l/m 0 min 0 min 0,0 UV-I 0 W/m 2,6 km/h (1 Bft)
19.02.2014 22:36 7,6 C 6,1 C 89 % 1014,3 hPa 0,0 l/m 0 min 0 min 0,0 UV-I 0 W/m 7,7 km/h (2 Bft)
19.02.2014 22:38 7,6 C 6,1 C 89 % 1014,3 hPa 0,0 l/m 0 min 0 min 0,0 UV-I 0 W/m 0,0 km/h (0 Bft)
19.02.2014 22:40 7,6 C 6,1 C 90 % 1014,3 hPa 0,0 l/m 0 min 0 min 0,0 UV-I 0 W/m 2,6 km/h (1 Bft)
19.02.2014 22:42 7,5 C 6,1 C 90 % 1014,3 hPa 0,0 l/m 0 min 0 min 0,0 UV-I 0 W/m 0,0 km/h (0 Bft)
19.02.2014 22:44 7,5 C 6,1 C 90 % 1014,3 hPa 0,0 l/m 0 min 0 min 0,0 UV-I 0 W/m 0,0 km/h (0 Bft)
19.02.2014 22:46 7,5 C 6,1 C 90 % 1014,3 hPa 0,0 l/m 0 min 0 min 0,0 UV-I 0 W/m 7,7 km/h (2 Bft)
19.02.2014 22:48 7,5 C 6,1 C 90 % 1014,3 hPa 0,0 l/m 0 min 0 min 0,0 UV-I 0 W/m 5,1 km/h (1 Bft)
19.02.2014 22:50 7,5 C 6,1 C 90 % 1014,2 hPa 0,0 l/m 0 min 0 min 0,0 UV-I 0 W/m 0,0 km/h (0 Bft)
19.02.2014 22:52 7,5 C 6,1 C 90 % 1014,3 hPa 0,0 l/m 0 min 0 min 0,0 UV-I 0 W/m 2,6 km/h (1 Bft)
19.02.2014 22:54 7,5 C 6,1 C 90 % 1014,3 hPa 0,0 l/m 0 min 0 min 0,0 UV-I 0 W/m 0,0 km/h (0 Bft)
19.02.2014 22:56 7,5 C 6,1 C 90 % 1014,2 hPa 0,0 l/m 0 min 0 min 0,0 UV-I 0 W/m 0,0 km/h (0 Bft)
19.02.2014 22:58 7,5 C 6,1 C 90 % 1014,2 hPa 0,0 l/m 0 min 0 min 0,0 UV-I 0 W/m 7,7 km/h (2 Bft)
19.02.2014 23:00 7,5 C 6,1 C 90 % 1014,2 hPa 0,0 l/m 0 min 0 min 0,0 UV-I 0 W/m 7,7 km/h (2 Bft)
19.02.2014 23:02 7,5 C 6,1 C 90 % 1014,3 hPa 0,0 l/m 0 min 0 min 0,0 UV-I 0 W/m 0,0 km/h (0 Bft)
19.02.2014 23:04 7,4 C 6,1 C 90 % 1014,2 hPa 0,0 l/m 0 min 0 min 0,0 UV-I 0 W/m 0,0 km/h (0 Bft)
19.02.2014 23:06 7,4 C 6,1 C 90 % 1014,2 hPa 0,0 l/m 0 min 0 min 0,0 UV-I 0 W/m 2,6 km/h (1 Bft)
19.02.2014 23:08 7,4 C 6,1 C 90 % 1014,3 hPa 0,0 l/m 0 min 0 min 0,0 UV-I 0 W/m 0,0 km/h (0 Bft)
19.02.2014 23:10 7,4 C 6,1 C 90 % 1014,2 hPa 0,0 l/m 0 min 0 min 0,0 UV-I 0 W/m 10,3 km/h (2 Bft)
19.02.2014 23:12 7,4 C 6,1 C 90 % 1014,1 hPa 0,0 l/m 0 min 0 min 0,0 UV-I 0 W/m 7,7 km/h (2 Bft)
19.02.2014 23:14 7,4 C 6,1 C 90 % 1014,1 hPa 0,0 l/m 0 min 0 min 0,0 UV-I 0 W/m 2,6 km/h (1 Bft)
19.02.2014 23:16 7,4 C 6,1 C 90 % 1014,1 hPa 0,0 l/m 0 min 0 min 0,0 UV-I 0 W/m 5,1 km/h (1 Bft)
19.02.2014 23:18 7,4 C 6,1 C 90 % 1014,2 hPa 0,0 l/m 0 min 0 min 0,0 UV-I 0 W/m 5,1 km/h (1 Bft)
19.02.2014 23:20 7,4 C 6,1 C 90 % 1014,2 hPa 0,0 l/m 0 min 0 min 0,0 UV-I 0 W/m 0,0 km/h (0 Bft)
19.02.2014 23:22 7,4 C 6,1 C 90 % 1014,2 hPa 0,0 l/m 0 min 0 min 0,0 UV-I 0 W/m 0,0 km/h (0 Bft)
19.02.2014 23:24 7,4 C 6,1 C 90 % 1014,2 hPa 0,0 l/m 0 min 0 min 0,0 UV-I 0 W/m 2,6 km/h (1 Bft)
19.02.2014 23:26 7,4 C 6,1 C 91 % 1014,1 hPa 0,0 l/m 0 min 0 min 0,0 UV-I 0 W/m 0,0 km/h (0 Bft)
19.02.2014 23:28 7,4 C 6,1 C 91 % 1014,1 hPa 0,0 l/m 0 min 0 min 0,0 UV-I 0 W/m 7,7 km/h (2 Bft)
19.02.2014 23:30 7,4 C 6,1 C 91 % 1014,2 hPa 0,0 l/m 0 min 0 min 0,0 UV-I 0 W/m 0,0 km/h (0 Bft)
19.02.2014 23:32 7,4 C 6,1 C 91 % 1014,1 hPa 0,0 l/m 0 min 0 min 0,0 UV-I 0 W/m 5,1 km/h (1 Bft)
19.02.2014 23:34 7,4 C 6,1 C 91 % 1014,2 hPa 0,0 l/m 0 min 0 min 0,0 UV-I 0 W/m 0,0 km/h (0 Bft)
19.02.2014 23:36 7,4 C 6,1 C 91 % 1014,2 hPa 0,0 l/m 0 min 0 min 0,0 UV-I 0 W/m 10,3 km/h (2 Bft)
19.02.2014 23:38 7,4 C 6,1 C 91 % 1014,2 hPa 0,0 l/m 0 min 0 min 0,0 UV-I 0 W/m 0,0 km/h (0 Bft)
19.02.2014 23:40 7,4 C 6,1 C 91 % 1014,2 hPa 0,0 l/m 0 min 0 min 0,0 UV-I 0 W/m 7,7 km/h (2 Bft)
19.02.2014 23:42 7,4 C 6,1 C 91 % 1014,2 hPa 0,0 l/m 0 min 0 min 0,0 UV-I 0 W/m 2,6 km/h (1 Bft)
19.02.2014 23:44 7,4 C 6,1 C 91 % 1014,2 hPa 0,0 l/m 0 min 0 min 0,0 UV-I 0 W/m 0,0 km/h (0 Bft)
19.02.2014 23:46 7,4 C 6,1 C 91 % 1014,2 hPa 0,0 l/m 0 min 0 min 0,0 UV-I 0 W/m 0,0 km/h (0 Bft)
19.02.2014 23:48 7,4 C 6,1 C 91 % 1014,1 hPa 0,0 l/m 0 min 0 min 0,0 UV-I 0 W/m 2,6 km/h (1 Bft)
19.02.2014 23:50 7,3 C 6,1 C 91 % 1014,1 hPa 0,0 l/m 0 min 0 min 0,0 UV-I 0 W/m 5,1 km/h (1 Bft)
19.02.2014 23:52 7,3 C 6,1 C 91 % 1014,1 hPa 0,0 l/m 0 min 0 min 0,0 UV-I 0 W/m 5,1 km/h (1 Bft)
19.02.2014 23:54 7,3 C 6,1 C 91 % 1014,0 hPa 0,0 l/m 0 min 0 min 0,0 UV-I 0 W/m 7,7 km/h (2 Bft)
19.02.2014 23:56 7,3 C 6,1 C 91 % 1014,1 hPa 0,0 l/m 0 min 0 min 0,0 UV-I 0 W/m 5,1 km/h (1 Bft)
19.02.2014 23:58 7,3 C 6,1 C 91 % 1014,1 hPa 0,0 l/m 0 min 0 min 0,0 UV-I 0 W/m 5,1 km/h (1 Bft)
_ Min-Zeit 02:20 02:06 16:28 04:38 - - - - - 00:10
Minimum _ 6,4 C 4,4 C 79 % 1010,0 hPa - - - - - 0,0 km/h (0 Bft)
_ Max-Zeit 14:06 12:46 01:02 21:26 01:36 12:34 00:06 12:44 13:48 11:02
Maximum _ 10,0 C 9,4 C 95 % 1014,4 hPa 0,2 l/m 2 min 2 min 0,6 UV-I 529 W/m 25,7 km/h
W-NW (4 Bft)
Durchschnitt _ 7,7 C 6,3 C 89 % 1012,2 hPa #0,8 l/m #1:42 h #2:04 h 0,5 UV-I 122 W/m 6,5 km/h (2 Bft)
© 2014 W. Hausmann